Time,TemperatureF,DewpointF,PressureIn,WindDirection,WindDirectionDegrees,WindSpeedMPH,WindSpeedGustMPH,Humidity,HourlyPrecipIn,Conditions,Clouds,dailyrainin,SoftwareType,DateUTC
2013-06-15 00:00:00,62.2,59.5,29.90,West,277,2.0,8.0,91,0.00,,,0.16,meteohub,2013-06-15 04:00:00,
2013-06-15 00:01:00,62.2,59.5,29.90,West,265,2.0,9.0,91,0.00,,,0.16,meteohub,2013-06-15 04:01:00,
2013-06-15 00:06:00,62.1,59.4,29.90,West,274,1.0,9.0,91,0.00,,,0.00,meteohub,2013-06-15 04:06:00,
2013-06-15 00:07:00,62.1,59.4,29.90,WSW,256,2.0,9.0,91,0.00,,,0.00,meteohub,2013-06-15 04:07:00,
2013-06-15 00:09:00,62.1,59.4,29.90,WNW,284,3.0,9.0,91,0.00,,,0.00,meteohub,2013-06-15 04:09:00,
2013-06-15 00:11:00,62.1,59.4,29.90,WSW,254,7.0,9.0,91,0.00,,,0.00,meteohub,2013-06-15 04:11:00,
2013-06-15 00:12:00,62.1,59.4,29.90,WSW,254,7.0,9.0,91,0.00,,,0.00,meteohub,2013-06-15 04:12:00,
2013-06-15 00:14:00,61.9,59.2,29.89,West,278,8.0,9.0,91,0.00,,,0.00,meteohub,2013-06-15 04:14:00,
2013-06-15 00:17:00,61.9,59.2,29.89,WNW,282,4.0,9.0,91,0.00,,,0.00,meteohub,2013-06-15 04:17:00,
2013-06-15 00:20:00,61.9,59.2,29.90,WNW,292,2.0,9.0,91,0.00,,,0.00,meteohub,2013-06-15 04:20:00,
2013-06-15 00:22:00,61.9,59.5,29.89,WSW,244,2.0,9.0,92,0.00,,,0.00,meteohub,2013-06-15 04:22:00,
2013-06-15 00:27:00,61.9,59.5,29.90,WSW,257,4.0,9.0,92,0.00,,,0.00,meteohub,2013-06-15 04:27:00,
2013-06-15 00:28:00,61.9,59.5,29.90,West,276,6.0,9.0,92,0.00,,,0.00,meteohub,2013-06-15 04:28:00,
2013-06-15 00:32:00,61.9,59.5,29.90,West,269,3.0,8.0,92,0.00,,,0.00,meteohub,2013-06-15 04:32:00,
2013-06-15 00:33:00,61.9,59.5,29.90,West,275,4.0,8.0,92,0.00,,,0.00,meteohub,2013-06-15 04:33:00,
2013-06-15 00:37:00,61.9,59.5,29.90,West,265,3.0,8.0,92,0.00,,,0.00,meteohub,2013-06-15 04:37:00,
2013-06-15 00:38:00,61.9,59.5,29.90,WNW,288,5.0,8.0,92,0.00,,,0.00,meteohub,2013-06-15 04:38:00,
2013-06-15 00:42:00,61.9,59.5,29.90,WNW,289,7.0,10.0,92,0.00,,,0.00,meteohub,2013-06-15 04:42:00,
2013-06-15 00:43:00,61.7,59.4,29.90,WNW,290,5.0,10.0,92,0.00,,,0.00,meteohub,2013-06-15 04:43:00,
2013-06-15 00:47:00,61.5,59.2,29.89,West,278,7.0,10.0,92,0.00,,,0.00,meteohub,2013-06-15 04:47:00,
2013-06-15 00:48:00,61.5,59.2,29.89,West,260,4.0,10.0,92,0.00,,,0.00,meteohub,2013-06-15 04:48:00,
2013-06-15 00:49:00,61.5,59.2,29.89,West,260,6.0,10.0,92,0.00,,,0.00,meteohub,2013-06-15 04:49:00,
2013-06-15 00:52:00,61.5,59.2,29.89,WNW,296,7.0,10.0,92,0.00,,,0.00,meteohub,2013-06-15 04:52:00,
2013-06-15 00:53:00,61.5,59.2,29.89,WNW,290,2.0,10.0,92,0.00,,,0.00,meteohub,2013-06-15 04:53:00,
2013-06-15 00:54:00,61.5,59.2,29.89,West,281,3.0,10.0,92,0.00,,,0.00,meteohub,2013-06-15 04:54:00,
2013-06-15 00:58:00,61.3,58.6,29.89,WNW,284,4.0,10.0,91,0.00,,,0.00,meteohub,2013-06-15 04:58:00,
2013-06-15 00:59:00,61.3,58.6,29.89,West,269,6.0,10.0,91,0.00,,,0.00,meteohub,2013-06-15 04:59:00,
2013-06-15 01:03:00,61.3,58.6,29.89,NW,304,9.0,10.0,91,0.00,,,0.00,meteohub,2013-06-15 05:03:00,
2013-06-15 01:04:00,61.3,58.6,29.89,West,279,9.0,10.0,91,0.00,,,0.00,meteohub,2013-06-15 05:04:00,
2013-06-15 01:05:00,61.3,58.6,29.89,WNW,284,3.0,10.0,91,0.00,,,0.00,meteohub,2013-06-15 05:05:00,
2013-06-15 01:08:00,61.3,58.6,29.90,West,271,4.0,10.0,91,0.00,,,0.00,meteohub,2013-06-15 05:08:00,
2013-06-15 01:09:00,61.3,58.6,29.90,West,278,3.0,10.0,91,0.00,,,0.00,meteohub,2013-06-15 05:09:00,
2013-06-15 01:10:00,61.3,58.6,29.90,West,271,3.0,10.0,91,0.00,,,0.00,meteohub,2013-06-15 05:10:00,
2013-06-15 01:11:00,61.3,58.6,29.90,WNW,290,4.0,10.0,91,0.00,,,0.00,meteohub,2013-06-15 05:11:00,
2013-06-15 01:14:00,61.3,58.6,29.89,WNW,289,12.0,12.0,91,0.00,,,0.00,meteohub,2013-06-15 05:14:00,
2013-06-15 01:15:00,61.3,58.6,29.89,NW,313,5.0,10.0,91,0.00,,,0.00,meteohub,2013-06-15 05:15:00,
2013-06-15 01:16:00,61.3,58.6,29.89,WSW,238,5.0,10.0,91,0.00,,,0.00,meteohub,2013-06-15 05:16:00,
2013-06-15 01:19:00,61.3,58.6,29.89,West,273,2.0,10.0,91,0.00,,,0.00,meteohub,2013-06-15 05:19:00,
2013-06-15 01:20:00,61.3,58.6,29.89,WNW,297,3.0,10.0,91,0.00,,,0.00,meteohub,2013-06-15 05:20:00,
2013-06-15 01:21:00,61.3,58.6,29.89,West,277,3.0,12.0,91,0.00,,,0.00,meteohub,2013-06-15 05:21:00,
2013-06-15 01:24:00,61.3,58.6,29.90,WNW,285,4.0,12.0,91,0.00,,,0.00,meteohub,2013-06-15 05:24:00,
2013-06-15 01:25:00,61.3,58.6,29.90,West,280,4.0,12.0,91,0.00,,,0.00,meteohub,2013-06-15 05:25:00,
2013-06-15 01:26:00,61.3,58.6,29.90,WNW,289,3.0,12.0,91,0.00,,,0.00,meteohub,2013-06-15 05:26:00,
2013-06-15 01:27:00,61.3,58.6,29.90,West,281,2.0,12.0,91,0.00,,,0.00,meteohub,2013-06-15 05:27:00,
2013-06-15 01:30:00,61.2,58.5,29.90,WSW,253,7.0,12.0,91,0.00,,,0.00,meteohub,2013-06-15 05:30:00,
2013-06-15 01:31:00,61.2,58.5,29.90,West,265,3.0,8.0,91,0.00,,,0.00,meteohub,2013-06-15 05:31:00,
2013-06-15 01:32:00,61.2,58.5,29.90,WNW,289,4.0,8.0,91,0.00,,,0.00,meteohub,2013-06-15 05:32:00,
2013-06-15 01:35:00,61.3,58.6,29.90,West,278,6.0,8.0,91,0.00,,,0.00,meteohub,2013-06-15 05:35:00,
2013-06-15 01:36:00,61.2,58.5,29.90,WNW,292,5.0,9.0,91,0.00,,,0.00,meteohub,2013-06-15 05:36:00,
2013-06-15 01:37:00,61.2,58.5,29.90,West,271,3.0,9.0,91,0.00,,,0.00,meteohub,2013-06-15 05:37:00,
2013-06-15 01:40:00,61.2,58.5,29.90,WSW,238,2.0,9.0,91,0.00,,,0.00,meteohub,2013-06-15 05:40:00,
2013-06-15 01:41:00,61.2,58.5,29.90,WNW,290,7.0,10.0,91,0.00,,,0.00,meteohub,2013-06-15 05:41:00,
2013-06-15 01:42:00,61.2,58.5,29.90,West,281,10.0,10.0,91,0.00,,,0.00,meteohub,2013-06-15 05:42:00,
2013-06-15 01:45:00,61.2,58.5,29.90,WNW,292,3.0,10.0,91,0.00,,,0.00,meteohub,2013-06-15 05:45:00,
2013-06-15 01:46:00,61.2,58.5,29.90,SW,228,5.0,10.0,91,0.00,,,0.00,meteohub,2013-06-15 05:46:00,
2013-06-15 01:47:00,61.2,58.5,29.90,WNW,294,8.0,10.0,91,0.00,,,0.00,meteohub,2013-06-15 05:47:00,
2013-06-15 01:48:00,61.2,58.5,29.90,West,268,6.0,10.0,91,0.00,,,0.00,meteohub,2013-06-15 05:48:00,
2013-06-15 01:50:00,61.2,58.5,29.90,WNW,299,5.0,10.0,91,0.00,,,0.00,meteohub,2013-06-15 05:50:00,
2013-06-15 01:51:00,61.2,58.5,29.90,West,267,7.0,10.0,91,0.00,,,0.00,meteohub,2013-06-15 05:51:00,
2013-06-15 01:52:00,61.2,58.5,29.90,West,269,7.0,10.0,91,0.00,,,0.00,meteohub,2013-06-15 05:52:00,
2013-06-15 01:54:00,61.2,58.5,29.90,West,281,10.0,10.0,91,0.00,,,0.00,meteohub,2013-06-15 05:54:00,
2013-06-15 01:55:00,61.2,58.5,29.90,West,259,8.0,12.0,91,0.00,,,0.00,meteohub,2013-06-15 05:55:00,
2013-06-15 01:56:00,61.2,58.5,29.90,West,281,8.0,12.0,91,0.00,,,0.00,meteohub,2013-06-15 05:56:00,
2013-06-15 01:57:00,61.2,58.5,29.90,West,264,6.0,12.0,91,0.00,,,0.00,meteohub,2013-06-15 05:57:00,
2013-06-15 01:59:00,61.2,58.5,29.90,WNW,286,6.0,12.0,91,0.00,,,0.00,meteohub,2013-06-15 05:59:00,
2013-06-15 02:00:00,61.2,58.5,29.90,West,266,6.0,12.0,91,0.00,,,0.00,meteohub,2013-06-15 06:00:00,
2013-06-15 02:01:00,61.2,58.5,29.90,West,270,4.0,12.0,91,0.00,,,0.00,meteohub,2013-06-15 06:01:00,
2013-06-15 02:03:00,61.2,58.5,29.90,West,268,10.0,12.0,91,0.00,,,0.00,meteohub,2013-06-15 06:03:00,
2013-06-15 02:04:00,61.2,58.5,29.90,West,259,8.0,12.0,91,0.00,,,0.00,meteohub,2013-06-15 06:04:00,
2013-06-15 02:05:00,61.2,58.5,29.90,West,275,6.0,12.0,91,0.00,,,0.00,meteohub,2013-06-15 06:05:00,
2013-06-15 02:06:00,61.2,58.5,29.91,WNW,294,8.0,12.0,91,0.00,,,0.00,meteohub,2013-06-15 06:06:00,
2013-06-15 02:08:00,61.2,58.5,29.91,West,279,4.0,12.0,91,0.00,,,0.00,meteohub,2013-06-15 06:08:00,
2013-06-15 02:09:00,61.2,58.5,29.91,WNW,292,3.0,12.0,91,0.00,,,0.00,meteohub,2013-06-15 06:09:00,
2013-06-15 02:10:00,61.2,58.5,29.90,WNW,288,11.0,12.0,91,0.00,,,0.00,meteohub,2013-06-15 06:10:00,
2013-06-15 02:11:00,61.2,58.5,29.90,West,277,3.0,12.0,91,0.00,,,0.00,meteohub,2013-06-15 06:11:00,
2013-06-15 02:12:00,61.2,58.5,29.91,WSW,248,3.0,12.0,91,0.00,,,0.00,meteohub,2013-06-15 06:12:00,
2013-06-15 02:13:00,61.2,58.5,29.91,West,273,3.0,12.0,91,0.00,,,0.00,meteohub,2013-06-15 06:13:00,
2013-06-15 02:14:00,61.2,58.3,29.90,West,276,3.0,12.0,90,0.00,,,0.00,meteohub,2013-06-15 06:14:00,
2013-06-15 02:15:00,61.2,58.3,29.91,WNW,292,7.0,12.0,90,0.00,,,0.00,meteohub,2013-06-15 06:15:00,
2013-06-15 02:16:00,61.2,58.3,29.90,West,261,4.0,12.0,90,0.00,,,0.00,meteohub,2013-06-15 06:16:00,
2013-06-15 02:17:00,61.2,58.3,29.90,WNW,294,4.0,12.0,90,0.00,,,0.00,meteohub,2013-06-15 06:17:00,
2013-06-15 02:18:00,61.2,58.3,29.90,West,260,2.0,12.0,90,0.00,,,0.00,meteohub,2013-06-15 06:18:00,
2013-06-15 02:19:00,61.2,58.3,29.90,West,273,3.0,12.0,90,0.00,,,0.00,meteohub,2013-06-15 06:19:00,
2013-06-15 02:21:00,61.2,58.3,29.90,SW,229,3.0,12.0,90,0.00,,,0.00,meteohub,2013-06-15 06:21:00,
2013-06-15 02:22:00,61.2,58.3,29.90,WNW,296,8.0,12.0,90,0.00,,,0.00,meteohub,2013-06-15 06:22:00,
2013-06-15 02:23:00,61.2,58.3,29.90,West,265,3.0,12.0,90,0.00,,,0.00,meteohub,2013-06-15 06:23:00,
2013-06-15 02:25:00,61.2,58.3,29.90,West,280,2.0,12.0,90,0.00,,,0.00,meteohub,2013-06-15 06:25:00,
2013-06-15 02:26:00,61.2,58.3,29.90,WNW,288,8.0,11.0,90,0.00,,,0.00,meteohub,2013-06-15 06:26:00,
2013-06-15 02:27:00,61.2,58.3,29.90,West,281,6.0,11.0,90,0.00,,,0.00,meteohub,2013-06-15 06:27:00,
2013-06-15 02:30:00,61.2,58.3,29.90,WNW,290,8.0,11.0,90,0.00,,,0.00,meteohub,2013-06-15 06:30:00,
2013-06-15 02:31:00,61.2,58.3,29.90,WSW,242,3.0,11.0,90,0.00,,,0.00,meteohub,2013-06-15 06:31:00,
2013-06-15 02:32:00,61.2,58.3,29.90,WSW,258,7.0,11.0,90,0.00,,,0.00,meteohub,2013-06-15 06:32:00,
2013-06-15 02:35:00,61.2,58.3,29.90,WSW,257,4.0,13.0,90,0.00,,,0.00,meteohub,2013-06-15 06:35:00,
2013-06-15 02:36:00,61.2,58.3,29.90,West,273,7.0,13.0,90,0.00,,,0.00,meteohub,2013-06-15 06:36:00,
2013-06-15 02:37:00,61.2,58.3,29.90,WSW,250,4.0,13.0,90,0.00,,,0.00,meteohub,2013-06-15 06:37:00,
2013-06-15 02:41:00,61.3,58.5,29.90,West,278,4.0,13.0,90,0.00,,,0.00,meteohub,2013-06-15 06:41:00,
2013-06-15 02:42:00,61.3,58.5,29.91,West,274,6.0,13.0,90,0.00,,,0.00,meteohub,2013-06-15 06:42:00,
2013-06-15 02:43:00,61.3,58.5,29.91,WSW,248,4.0,13.0,90,0.00,,,0.00,meteohub,2013-06-15 06:43:00,
2013-06-15 02:46:00,61.3,58.5,29.90,WNW,294,5.0,13.0,90,0.00,,,0.00,meteohub,2013-06-15 06:46:00,
2013-06-15 02:48:00,61.3,58.5,29.90,West,263,6.0,13.0,90,0.00,,,0.00,meteohub,2013-06-15 06:48:00,
2013-06-15 02:51:00,61.3,58.5,29.90,WNW,285,4.0,10.0,90,0.00,,,0.00,meteohub,2013-06-15 06:51:00,
2013-06-15 02:53:00,61.3,58.5,29.90,WNW,285,4.0,10.0,90,0.00,,,0.00,meteohub,2013-06-15 06:53:00,
2013-06-15 02:56:00,61.3,58.5,29.90,WNW,294,10.0,10.0,90,0.00,,,0.00,meteohub,2013-06-15 06:56:00,
2013-06-15 02:58:00,61.3,58.5,29.90,WNW,297,10.0,10.0,90,0.00,,,0.00,meteohub,2013-06-15 06:58:00,
2013-06-15 02:59:00,61.5,58.6,29.90,WNW,294,5.0,9.0,90,0.00,,,0.00,meteohub,2013-06-15 06:59:00,
2013-06-15 03:01:00,61.5,58.6,29.90,WSW,254,5.0,12.0,90,0.00,,,0.00,meteohub,2013-06-15 07:01:00,
2013-06-15 03:03:00,61.3,58.5,29.90,WNW,284,2.0,12.0,90,0.00,,,0.00,meteohub,2013-06-15 07:03:00,
2013-06-15 03:04:00,61.5,58.6,29.90,West,277,7.0,12.0,90,0.00,,,0.00,meteohub,2013-06-15 07:04:00,
2013-06-15 03:07:00,61.5,58.6,29.90,WSW,248,5.0,12.0,90,0.00,,,0.00,meteohub,2013-06-15 07:07:00,
2013-06-15 03:09:00,61.3,58.5,29.90,West,259,6.0,12.0,90,0.00,,,0.00,meteohub,2013-06-15 07:09:00,
2013-06-15 03:10:00,61.3,58.5,29.90,WSW,252,2.0,12.0,90,0.00,,,0.00,meteohub,2013-06-15 07:10:00,
2013-06-15 03:12:00,61.3,58.5,29.90,West,262,7.0,12.0,90,0.00,,,0.00,meteohub,2013-06-15 07:12:00,
2013-06-15 03:14:00,61.3,58.5,29.90,WNW,295,4.0,12.0,90,0.00,,,0.00,meteohub,2013-06-15 07:14:00,
2013-06-15 03:15:00,61.3,58.5,29.90,WSW,254,2.0,12.0,90,0.00,,,0.00,meteohub,2013-06-15 07:15:00,
2013-06-15 03:17:00,61.2,58.3,29.90,WNW,292,7.0,11.0,90,0.00,,,0.00,meteohub,2013-06-15 07:17:00,
2013-06-15 03:18:00,61.2,58.3,29.90,West,269,8.0,11.0,90,0.00,,,0.00,meteohub,2013-06-15 07:18:00,
2013-06-15 03:19:00,61.2,58.3,29.90,West,275,4.0,11.0,90,0.00,,,0.00,meteohub,2013-06-15 07:19:00,
2013-06-15 03:20:00,61.2,58.3,29.90,WSW,246,4.0,11.0,90,0.00,,,0.00,meteohub,2013-06-15 07:20:00,
2013-06-15 03:22:00,61.0,58.1,29.91,West,269,7.0,12.0,90,0.00,,,0.00,meteohub,2013-06-15 07:22:00,
2013-06-15 03:23:00,61.2,58.3,29.91,WNW,284,4.0,12.0,90,0.00,,,0.00,meteohub,2013-06-15 07:23:00,
2013-06-15 03:24:00,61.0,58.1,29.91,West,279,8.0,12.0,90,0.00,,,0.00,meteohub,2013-06-15 07:24:00,
2013-06-15 03:25:00,61.0,58.1,29.91,WNW,282,3.0,12.0,90,0.00,,,0.00,meteohub,2013-06-15 07:25:00,
2013-06-15 03:26:00,61.0,58.1,29.91,WNW,287,7.0,12.0,90,0.00,,,0.00,meteohub,2013-06-15 07:26:00,
2013-06-15 03:27:00,61.0,58.1,29.91,WSW,256,3.0,12.0,90,0.00,,,0.00,meteohub,2013-06-15 07:27:00,
2013-06-15 03:28:00,61.0,58.1,29.91,WNW,285,6.0,12.0,90,0.00,,,0.00,meteohub,2013-06-15 07:28:00,
2013-06-15 03:29:00,61.0,58.1,29.91,WNW,296,8.0,12.0,90,0.00,,,0.00,meteohub,2013-06-15 07:29:00,
2013-06-15 03:30:00,61.0,58.1,29.91,West,279,8.0,11.0,90,0.00,,,0.00,meteohub,2013-06-15 07:30:00,
2013-06-15 03:31:00,61.0,58.1,29.91,WSW,258,4.0,11.0,90,0.00,,,0.00,meteohub,2013-06-15 07:31:00,
2013-06-15 03:33:00,61.0,58.1,29.91,West,269,6.0,11.0,90,0.00,,,0.00,meteohub,2013-06-15 07:33:00,
2013-06-15 03:35:00,60.8,57.9,29.91,WSW,247,4.0,11.0,90,0.00,,,0.00,meteohub,2013-06-15 07:35:00,
2013-06-15 03:37:00,60.8,57.9,29.91,West,275,3.0,11.0,90,0.00,,,0.00,meteohub,2013-06-15 07:37:00,
2013-06-15 03:38:00,60.8,57.9,29.91,WNW,288,3.0,11.0,90,0.00,,,0.00,meteohub,2013-06-15 07:38:00,
2013-06-15 03:39:00,60.6,57.7,29.91,West,277,4.0,11.0,90,0.00,,,0.00,meteohub,2013-06-15 07:39:00,
2013-06-15 03:40:00,60.8,57.9,29.91,West,275,2.0,11.0,90,0.00,,,0.00,meteohub,2013-06-15 07:40:00,
2013-06-15 03:41:00,60.6,57.7,29.91,WSW,246,3.0,11.0,90,0.00,,,0.00,meteohub,2013-06-15 07:41:00,
2013-06-15 03:42:00,60.8,57.9,29.91,West,261,3.0,11.0,90,0.00,,,0.00,meteohub,2013-06-15 07:42:00,
2013-06-15 03:44:00,60.8,57.9,29.91,WNW,288,2.0,11.0,90,0.00,,,0.00,meteohub,2013-06-15 07:44:00,
2013-06-15 03:45:00,60.8,57.9,29.91,WNW,284,3.0,11.0,90,0.00,,,0.00,meteohub,2013-06-15 07:45:00,
2013-06-15 03:47:00,60.8,57.9,29.91,West,276,4.0,11.0,90,0.00,,,0.00,meteohub,2013-06-15 07:47:00,
2013-06-15 03:49:00,61.0,58.1,29.91,West,276,3.0,11.0,90,0.00,,,0.00,meteohub,2013-06-15 07:49:00,
2013-06-15 03:50:00,61.2,58.3,29.91,WNW,296,4.0,13.0,90,0.00,,,0.00,meteohub,2013-06-15 07:50:00,
2013-06-15 03:51:00,61.2,58.3,29.91,WNW,287,3.0,13.0,90,0.00,,,0.00,meteohub,2013-06-15 07:51:00,
2013-06-15 03:52:00,61.2,58.3,29.91,WNW,286,3.0,13.0,90,0.00,,,0.00,meteohub,2013-06-15 07:52:00,
2013-06-15 03:54:00,61.2,58.3,29.91,WNW,292,7.0,13.0,90,0.00,,,0.00,meteohub,2013-06-15 07:54:00,
2013-06-15 03:56:00,61.2,58.3,29.91,WNW,296,7.0,13.0,90,0.00,,,0.00,meteohub,2013-06-15 07:56:00,
2013-06-15 03:57:00,61.2,58.3,29.91,WNW,285,3.0,13.0,90,0.00,,,0.00,meteohub,2013-06-15 07:57:00,
2013-06-15 03:58:00,61.2,58.3,29.91,WNW,295,9.0,13.0,90,0.00,,,0.00,meteohub,2013-06-15 07:58:00,
2013-06-15 03:59:00,61.2,58.3,29.91,WNW,299,3.0,13.0,90,0.00,,,0.00,meteohub,2013-06-15 07:59:00,
2013-06-15 04:01:00,61.2,58.3,29.91,West,271,3.0,13.0,90,0.00,,,0.00,meteohub,2013-06-15 08:01:00,
2013-06-15 04:02:00,61.2,57.9,29.91,WNW,288,8.0,13.0,89,0.00,,,0.00,meteohub,2013-06-15 08:02:00,
2013-06-15 04:04:00,61.2,57.9,29.91,WNW,289,7.0,13.0,89,0.00,,,0.00,meteohub,2013-06-15 08:04:00,
2013-06-15 04:05:00,61.2,57.9,29.91,WNW,284,3.0,13.0,89,0.00,,,0.00,meteohub,2013-06-15 08:05:00,
2013-06-15 04:06:00,61.2,57.9,29.91,WNW,297,5.0,12.0,89,0.00,,,0.00,meteohub,2013-06-15 08:06:00,
2013-06-15 04:07:00,61.2,57.9,29.91,WNW,294,4.0,12.0,89,0.00,,,0.00,meteohub,2013-06-15 08:07:00,
2013-06-15 04:08:00,61.2,57.9,29.91,WNW,296,8.0,12.0,89,0.00,,,0.00,meteohub,2013-06-15 08:08:00,
2013-06-15 04:09:00,61.2,57.9,29.91,West,273,6.0,12.0,89,0.00,,,0.00,meteohub,2013-06-15 08:09:00,
2013-06-15 04:11:00,61.3,58.1,29.91,WNW,291,5.0,12.0,89,0.00,,,0.00,meteohub,2013-06-15 08:11:00,
2013-06-15 04:12:00,61.3,58.1,29.91,WNW,302,3.0,12.0,89,0.00,,,0.00,meteohub,2013-06-15 08:12:00,
2013-06-15 04:13:00,61.3,58.1,29.91,West,274,6.0,12.0,89,0.00,,,0.00,meteohub,2013-06-15 08:13:00,
2013-06-15 04:14:00,61.3,58.1,29.91,WNW,283,6.0,12.0,89,0.00,,,0.00,meteohub,2013-06-15 08:14:00,
2013-06-15 04:17:00,61.3,58.1,29.91,West,278,8.0,10.0,89,0.00,,,0.00,meteohub,2013-06-15 08:17:00,
2013-06-15 04:18:00,61.3,58.1,29.91,WNW,291,1.0,10.0,89,0.00,,,0.00,meteohub,2013-06-15 08:18:00,
2013-06-15 04:19:00,61.3,57.7,29.91,WNW,287,7.0,10.0,88,0.00,,,0.00,meteohub,2013-06-15 08:19:00,
2013-06-15 04:20:00,61.3,57.7,29.91,WNW,295,3.0,10.0,88,0.00,,,0.00,meteohub,2013-06-15 08:20:00,
2013-06-15 04:22:00,61.3,57.7,29.91,West,269,7.0,10.0,88,0.00,,,0.00,meteohub,2013-06-15 08:22:00,
2013-06-15 04:23:00,61.3,57.7,29.91,West,273,3.0,10.0,88,0.00,,,0.00,meteohub,2013-06-15 08:23:00,
2013-06-15 04:24:00,61.3,57.7,29.91,WNW,294,1.0,10.0,88,0.00,,,0.00,meteohub,2013-06-15 08:24:00,
2013-06-15 04:25:00,61.3,57.7,29.91,West,267,4.0,10.0,88,0.00,,,0.00,meteohub,2013-06-15 08:25:00,
2013-06-15 04:27:00,61.3,57.7,29.91,West,278,4.0,10.0,88,0.00,,,0.00,meteohub,2013-06-15 08:27:00,
2013-06-15 04:28:00,61.3,57.7,29.91,West,271,2.0,10.0,88,0.00,,,0.00,meteohub,2013-06-15 08:28:00,
2013-06-15 04:30:00,61.3,57.7,29.91,WNW,298,2.0,10.0,88,0.00,,,0.00,meteohub,2013-06-15 08:30:00,
2013-06-15 04:32:00,61.3,57.7,29.91,WNW,288,5.0,10.0,88,0.00,,,0.00,meteohub,2013-06-15 08:32:00,
2013-06-15 04:33:00,61.3,57.7,29.91,WNW,295,5.0,10.0,88,0.00,,,0.00,meteohub,2013-06-15 08:33:00,
2013-06-15 04:35:00,61.3,57.7,29.91,WNW,282,4.0,10.0,88,0.00,,,0.00,meteohub,2013-06-15 08:35:00,
2013-06-15 04:38:00,61.3,57.7,29.91,WSW,254,5.0,10.0,88,0.00,,,0.00,meteohub,2013-06-15 08:38:00,
2013-06-15 04:40:00,61.3,57.7,29.91,WNW,295,1.0,10.0,88,0.00,,,0.00,meteohub,2013-06-15 08:40:00,
2013-06-15 04:44:00,61.3,57.7,29.91,WNW,283,4.0,10.0,88,0.00,,,0.00,meteohub,2013-06-15 08:44:00,
2013-06-15 04:45:00,61.3,57.7,29.91,WNW,291,3.0,10.0,88,0.00,,,0.00,meteohub,2013-06-15 08:45:00,
2013-06-15 04:46:00,61.3,57.7,29.91,WNW,292,4.0,10.0,88,0.00,,,0.00,meteohub,2013-06-15 08:46:00,
2013-06-15 04:49:00,61.3,57.7,29.91,WNW,295,2.0,10.0,88,0.00,,,0.00,meteohub,2013-06-15 08:49:00,
2013-06-15 04:50:00,61.3,57.7,29.92,WNW,293,2.0,10.0,88,0.00,,,0.00,meteohub,2013-06-15 08:50:00,
2013-06-15 04:51:00,61.3,57.7,29.91,WNW,286,1.0,9.0,88,0.00,,,0.00,meteohub,2013-06-15 08:51:00,
2013-06-15 04:55:00,61.3,57.7,29.91,WNW,292,4.0,9.0,88,0.00,,,0.00,meteohub,2013-06-15 08:55:00,
2013-06-15 04:56:00,61.3,57.7,29.91,WNW,296,4.0,8.0,88,0.00,,,0.00,meteohub,2013-06-15 08:56:00,
2013-06-15 05:00:00,61.3,57.4,29.91,WNW,291,4.0,8.0,87,0.00,,,0.00,meteohub,2013-06-15 09:00:00,
2013-06-15 05:01:00,61.3,57.4,29.91,WNW,290,3.0,7.0,87,0.00,,,0.00,meteohub,2013-06-15 09:01:00,
2013-06-15 05:02:00,61.3,57.4,29.91,NW,305,3.0,7.0,87,0.00,,,0.00,meteohub,2013-06-15 09:02:00,
2013-06-15 05:05:00,61.3,57.4,29.91,WNW,282,6.0,7.0,87,0.00,,,0.00,meteohub,2013-06-15 09:05:00,
2013-06-15 05:06:00,61.3,57.4,29.92,WNW,288,4.0,7.0,87,0.00,,,0.00,meteohub,2013-06-15 09:06:00,
2013-06-15 05:07:00,61.3,57.4,29.92,WNW,300,2.0,7.0,87,0.00,,,0.00,meteohub,2013-06-15 09:07:00,
2013-06-15 05:11:00,61.3,57.4,29.92,WNW,285,3.0,8.0,87,0.00,,,0.00,meteohub,2013-06-15 09:11:00,
2013-06-15 05:12:00,61.3,57.4,29.92,WNW,298,3.0,8.0,87,0.00,,,0.00,meteohub,2013-06-15 09:12:00,
2013-06-15 05:16:00,61.3,57.4,29.92,WNW,303,4.0,10.0,87,0.00,,,0.00,meteohub,2013-06-15 09:16:00,
2013-06-15 05:17:00,61.3,57.4,29.92,West,265,4.0,10.0,87,0.00,,,0.00,meteohub,2013-06-15 09:17:00,
2013-06-15 05:21:00,61.3,57.4,29.92,West,278,3.0,10.0,87,0.00,,,0.00,meteohub,2013-06-15 09:21:00,
2013-06-15 05:22:00,61.3,57.4,29.92,WNW,282,2.0,10.0,87,0.00,,,0.00,meteohub,2013-06-15 09:22:00,
2013-06-15 05:23:00,61.3,57.4,29.93,WNW,288,3.0,10.0,87,0.00,,,0.00,meteohub,2013-06-15 09:23:00,
2013-06-15 05:27:00,61.3,57.4,29.93,WNW,282,4.0,10.0,87,0.00,,,0.00,meteohub,2013-06-15 09:27:00,
2013-06-15 05:28:00,61.3,57.4,29.93,WNW,288,4.0,10.0,87,0.00,,,0.00,meteohub,2013-06-15 09:28:00,
2013-06-15 05:32:00,61.3,57.4,29.93,WNW,300,4.0,7.0,87,0.00,,,0.00,meteohub,2013-06-15 09:32:00,
2013-06-15 05:33:00,61.3,57.4,29.93,WNW,296,3.0,7.0,87,0.00,,,0.00,meteohub,2013-06-15 09:33:00,
2013-06-15 05:34:00,61.3,57.4,29.93,WNW,292,2.0,7.0,87,0.00,,,0.00,meteohub,2013-06-15 09:34:00,
2013-06-15 05:37:00,61.3,57.4,29.93,WNW,296,2.0,8.0,87,0.00,,,0.00,meteohub,2013-06-15 09:37:00,
2013-06-15 05:38:00,61.3,57.4,29.93,West,265,3.0,8.0,87,0.00,,,0.00,meteohub,2013-06-15 09:38:00,
2013-06-15 05:39:00,61.3,57.4,29.93,WNW,284,4.0,8.0,87,0.00,,,0.00,meteohub,2013-06-15 09:39:00,
2013-06-15 05:42:00,61.2,57.2,29.93,West,280,2.0,8.0,87,0.00,,,0.00,meteohub,2013-06-15 09:42:00,
2013-06-15 05:43:00,61.2,57.2,29.93,WNW,289,2.0,8.0,87,0.00,,,0.00,meteohub,2013-06-15 09:43:00,
2013-06-15 05:44:00,61.2,57.2,29.93,WNW,287,1.0,8.0,87,0.00,,,0.00,meteohub,2013-06-15 09:44:00,
2013-06-15 05:45:00,61.2,57.2,29.93,WNW,294,4.0,8.0,87,0.00,,,0.00,meteohub,2013-06-15 09:45:00,
2013-06-15 05:48:00,61.2,57.2,29.93,WNW,297,1.0,8.0,87,0.00,,,0.00,meteohub,2013-06-15 09:48:00,
2013-06-15 05:49:00,61.2,57.2,29.93,WNW,298,1.0,8.0,87,0.00,,,0.00,meteohub,2013-06-15 09:49:00,
2013-06-15 05:50:00,61.2,57.2,29.93,WNW,295,3.0,8.0,87,0.00,,,0.00,meteohub,2013-06-15 09:50:00,
2013-06-15 05:53:00,61.2,57.2,29.93,WNW,286,1.0,8.0,87,0.00,,,0.00,meteohub,2013-06-15 09:53:00,
2013-06-15 05:54:00,61.2,57.2,29.94,WNW,296,4.0,8.0,87,0.00,,,0.00,meteohub,2013-06-15 09:54:00,
2013-06-15 05:55:00,61.2,57.2,29.94,West,274,2.0,8.0,87,0.00,,,0.00,meteohub,2013-06-15 09:55:00,
2013-06-15 05:58:00,61.2,57.2,29.93,West,279,1.0,8.0,87,0.00,,,0.00,meteohub,2013-06-15 09:58:00,
2013-06-15 06:00:00,61.2,57.2,29.93,West,279,0.0,8.0,87,0.00,,,0.00,meteohub,2013-06-15 10:00:00,
2013-06-15 06:03:00,61.2,57.2,29.94,WNW,302,3.0,8.0,87,0.00,,,0.00,meteohub,2013-06-15 10:03:00,
2013-06-15 06:05:00,61.2,57.2,29.94,WNW,298,1.0,8.0,87,0.00,,,0.00,meteohub,2013-06-15 10:05:00,
2013-06-15 06:06:00,61.2,57.2,29.94,WNW,298,1.0,7.0,87,0.00,,,0.00,meteohub,2013-06-15 10:06:00,
2013-06-15 06:08:00,61.2,57.2,29.94,West,279,0.0,7.0,87,0.00,,,0.00,meteohub,2013-06-15 10:08:00,
2013-06-15 06:10:00,61.2,57.2,29.94,WNW,298,2.0,7.0,87,0.00,,,0.00,meteohub,2013-06-15 10:10:00,
2013-06-15 06:11:00,61.2,57.2,29.94,WNW,299,1.0,7.0,87,0.00,,,0.00,meteohub,2013-06-15 10:11:00,
2013-06-15 06:14:00,61.2,57.2,29.94,WNW,282,2.0,7.0,87,0.00,,,0.00,meteohub,2013-06-15 10:14:00,
2013-06-15 06:15:00,61.2,57.2,29.94,WNW,288,0.0,7.0,87,0.00,,,0.00,meteohub,2013-06-15 10:15:00,
2013-06-15 06:16:00,61.2,57.2,29.94,West,281,1.0,7.0,87,0.00,,,0.00,meteohub,2013-06-15 10:16:00,
2013-06-15 06:20:00,61.2,57.2,29.94,WNW,300,2.0,7.0,87,0.00,,,0.00,meteohub,2013-06-15 10:20:00,
2013-06-15 06:21:00,61.2,57.2,29.94,WNW,302,1.0,4.0,87,0.00,,,0.00,meteohub,2013-06-15 10:21:00,
2013-06-15 06:22:00,61.2,57.2,29.94,WNW,300,2.0,4.0,87,0.00,,,0.00,meteohub,2013-06-15 10:22:00,
2013-06-15 06:25:00,61.2,57.2,29.94,WNW,294,2.0,5.0,87,0.00,,,0.00,meteohub,2013-06-15 10:25:00,
2013-06-15 06:26:00,61.3,57.4,29.94,WNW,292,0.0,5.0,87,0.00,,,0.00,meteohub,2013-06-15 10:26:00,
2013-06-15 06:28:00,61.3,57.4,29.95,WNW,285,3.0,5.0,87,0.00,,,0.00,meteohub,2013-06-15 10:28:00,
2013-06-15 06:30:00,61.3,57.4,29.95,WNW,287,1.0,7.0,87,0.00,,,0.00,meteohub,2013-06-15 10:30:00,
2013-06-15 06:31:00,61.3,57.4,29.95,WNW,290,0.0,7.0,87,0.00,,,0.00,meteohub,2013-06-15 10:31:00,
2013-06-15 06:32:00,61.3,57.4,29.95,West,272,0.0,7.0,87,0.00,,,0.00,meteohub,2013-06-15 10:32:00,
2013-06-15 06:33:00,61.5,57.6,29.95,West,281,1.0,7.0,87,0.00,,,0.00,meteohub,2013-06-15 10:33:00,
2013-06-15 06:35:00,61.5,57.6,29.95,NW,304,0.0,7.0,87,0.00,,,0.00,meteohub,2013-06-15 10:35:00,
2013-06-15 06:36:00,61.5,57.6,29.95,WNW,295,0.0,7.0,87,0.00,,,0.00,meteohub,2013-06-15 10:36:00,
2013-06-15 06:38:00,61.9,57.9,29.95,WNW,295,0.0,7.0,87,0.00,,,0.00,meteohub,2013-06-15 10:38:00,
2013-06-15 06:39:00,61.9,57.9,29.95,West,267,1.0,7.0,87,0.00,,,0.00,meteohub,2013-06-15 10:39:00,
2013-06-15 06:40:00,62.1,58.1,29.95,WNW,282,1.0,7.0,87,0.00,,,0.00,meteohub,2013-06-15 10:40:00,
2013-06-15 06:41:00,62.1,58.1,29.95,WNW,288,2.0,7.0,87,0.00,,,0.00,meteohub,2013-06-15 10:41:00,
2013-06-15 06:43:00,62.1,58.1,29.95,West,280,2.0,7.0,87,0.00,,,0.00,meteohub,2013-06-15 10:43:00,
2013-06-15 06:44:00,62.1,57.7,29.95,WNW,284,2.0,7.0,86,0.00,,,0.00,meteohub,2013-06-15 10:44:00,
2013-06-15 06:45:00,62.1,57.7,29.95,West,271,0.0,5.0,86,0.00,,,0.00,meteohub,2013-06-15 10:45:00,
2013-06-15 06:46:00,62.2,57.9,29.95,West,259,1.0,5.0,86,0.00,,,0.00,meteohub,2013-06-15 10:46:00,
2013-06-15 06:48:00,62.2,57.9,29.95,West,266,2.0,5.0,86,0.00,,,0.00,meteohub,2013-06-15 10:48:00,
2013-06-15 06:49:00,62.2,57.9,29.95,WNW,285,1.0,5.0,86,0.00,,,0.00,meteohub,2013-06-15 10:49:00,
2013-06-15 06:50:00,62.2,57.9,29.95,WNW,295,1.0,5.0,86,0.00,,,0.00,meteohub,2013-06-15 10:50:00,
2013-06-15 06:51:00,62.2,57.9,29.95,WNW,286,2.0,7.0,86,0.00,,,0.00,meteohub,2013-06-15 10:51:00,
2013-06-15 06:53:00,62.4,57.9,29.95,WNW,295,4.0,7.0,85,0.00,,,0.00,meteohub,2013-06-15 10:53:00,
2013-06-15 06:54:00,62.4,57.9,29.95,WNW,295,1.0,7.0,85,0.00,,,0.00,meteohub,2013-06-15 10:54:00,
2013-06-15 06:55:00,62.4,57.9,29.95,WNW,286,2.0,7.0,85,0.00,,,0.00,meteohub,2013-06-15 10:55:00,
2013-06-15 06:56:00,62.4,57.9,29.95,WNW,293,0.0,7.0,85,0.00,,,0.00,meteohub,2013-06-15 10:56:00,
2013-06-15 06:57:00,62.4,57.9,29.95,WNW,298,1.0,7.0,85,0.00,,,0.00,meteohub,2013-06-15 10:57:00,
2013-06-15 06:59:00,62.6,58.1,29.96,WNW,290,2.0,7.0,85,0.00,,,0.00,meteohub,2013-06-15 10:59:00,
2013-06-15 07:01:00,62.6,58.1,29.96,NW,305,1.0,7.0,85,0.00,,,0.00,meteohub,2013-06-15 11:01:00,
2013-06-15 07:02:00,62.8,58.3,29.96,WNW,292,0.0,7.0,85,0.00,,,0.00,meteohub,2013-06-15 11:02:00,
2013-06-15 07:04:00,62.8,58.3,29.96,WNW,292,2.0,7.0,85,0.00,,,0.00,meteohub,2013-06-15 11:04:00,
2013-06-15 07:05:00,62.8,57.9,29.96,WNW,298,1.0,7.0,84,0.00,,,0.00,meteohub,2013-06-15 11:05:00,
2013-06-15 07:06:00,63.0,58.1,29.96,West,269,2.0,7.0,84,0.00,,,0.00,meteohub,2013-06-15 11:06:00,
2013-06-15 07:07:00,63.0,58.1,29.96,NNW,344,0.0,7.0,84,0.00,,,0.00,meteohub,2013-06-15 11:07:00,
2013-06-15 07:10:00,63.1,58.3,29.96,WNW,300,0.0,7.0,84,0.00,,,0.00,meteohub,2013-06-15 11:10:00,
2013-06-15 07:11:00,63.3,58.5,29.96,WNW,293,4.0,7.0,84,0.00,,,0.00,meteohub,2013-06-15 11:11:00,
2013-06-15 07:12:00,63.3,58.5,29.96,NNE,21,0.0,7.0,84,0.00,,,0.00,meteohub,2013-06-15 11:12:00,
2013-06-15 07:15:00,63.7,58.5,29.96,East,81,1.0,7.0,83,0.00,,,0.00,meteohub,2013-06-15 11:15:00,
2013-06-15 07:16:00,63.7,58.5,29.96,West,266,4.0,7.0,83,0.00,,,0.00,meteohub,2013-06-15 11:16:00,
2013-06-15 07:17:00,63.7,58.5,29.96,WNW,295,3.0,7.0,83,0.00,,,0.00,meteohub,2013-06-15 11:17:00,
2013-06-15 07:20:00,64.0,58.5,29.96,WNW,293,2.0,6.0,82,0.00,,,0.00,meteohub,2013-06-15 11:20:00,
2013-06-15 07:22:00,64.0,58.5,29.96,West,274,3.0,6.0,82,0.00,,,0.00,meteohub,2013-06-15 11:22:00,
2013-06-15 07:24:00,64.0,58.5,29.96,West,277,2.0,6.0,82,0.00,,,0.00,meteohub,2013-06-15 11:24:00,
2013-06-15 07:25:00,64.2,58.3,29.96,NW,317,4.0,8.0,81,0.00,,,0.00,meteohub,2013-06-15 11:25:00,
2013-06-15 07:27:00,64.2,58.3,29.96,WNW,293,4.0,8.0,81,0.00,,,0.00,meteohub,2013-06-15 11:27:00,
2013-06-15 07:28:00,64.2,58.3,29.96,WNW,292,3.0,8.0,81,0.00,,,0.00,meteohub,2013-06-15 11:28:00,
2013-06-15 07:29:00,64.2,58.3,29.96,NW,305,1.0,8.0,81,0.00,,,0.00,meteohub,2013-06-15 11:29:00,
2013-06-15 07:31:00,64.4,58.5,29.96,NNW,329,4.0,8.0,81,0.00,,,0.00,meteohub,2013-06-15 11:31:00,
2013-06-15 07:33:00,64.6,58.6,29.97,WNW,299,5.0,8.0,81,0.00,,,0.00,meteohub,2013-06-15 11:33:00,
2013-06-15 07:35:00,64.6,58.3,29.96,NW,309,4.0,8.0,80,0.00,,,0.00,meteohub,2013-06-15 11:35:00,
2013-06-15 07:36:00,64.6,58.3,29.97,West,281,2.0,8.0,80,0.00,,,0.00,meteohub,2013-06-15 11:36:00,
2013-06-15 07:38:00,64.8,58.5,29.97,WNW,287,0.0,8.0,80,0.00,,,0.00,meteohub,2013-06-15 11:38:00,
2013-06-15 07:40:00,64.9,58.6,29.97,WNW,295,0.0,8.0,80,0.00,,,0.00,meteohub,2013-06-15 11:40:00,
2013-06-15 07:42:00,65.1,58.8,29.97,West,261,2.0,8.0,80,0.00,,,0.00,meteohub,2013-06-15 11:42:00,
2013-06-15 07:43:00,65.1,58.8,29.97,WNW,290,1.0,8.0,80,0.00,,,0.00,meteohub,2013-06-15 11:43:00,
2013-06-15 07:44:00,65.3,59.0,29.97,WNW,290,1.0,8.0,80,0.00,,,0.00,meteohub,2013-06-15 11:44:00,
2013-06-15 07:45:00,65.5,59.2,29.97,ESE,117,1.0,8.0,80,0.00,,,0.00,meteohub,2013-06-15 11:45:00,
2013-06-15 07:47:00,65.7,59.4,29.97,NW,313,3.0,8.0,80,0.00,,,0.00,meteohub,2013-06-15 11:47:00,
2013-06-15 07:48:00,65.8,59.5,29.97,NW,322,1.0,8.0,80,0.00,,,0.00,meteohub,2013-06-15 11:48:00,
2013-06-15 07:49:00,65.8,59.5,29.97,NW,322,0.0,8.0,80,0.00,,,0.00,meteohub,2013-06-15 11:49:00,
2013-06-15 07:50:00,66.0,59.7,29.97,NW,311,3.0,6.0,80,0.00,,,0.00,meteohub,2013-06-15 11:50:00,
2013-06-15 07:52:00,66.4,59.7,29.97,NW,309,2.0,6.0,79,0.00,,,0.00,meteohub,2013-06-15 11:52:00,
2013-06-15 07:54:00,66.6,59.5,29.97,WNW,290,2.0,6.0,78,0.00,,,0.00,meteohub,2013-06-15 11:54:00,
2013-06-15 07:56:00,66.6,59.5,29.97,WNW,292,1.0,4.0,78,0.00,,,0.00,meteohub,2013-06-15 11:56:00,
2013-06-15 07:57:00,66.7,59.7,29.97,West,274,3.0,4.0,78,0.00,,,0.00,meteohub,2013-06-15 11:57:00,
2013-06-15 07:59:00,66.7,59.4,29.97,NW,314,2.0,4.0,77,0.00,,,0.00,meteohub,2013-06-15 11:59:00,
2013-06-15 08:00:00,66.6,59.2,29.97,NE,42,4.0,4.0,77,0.00,,,0.00,meteohub,2013-06-15 12:00:00,
2013-06-15 08:01:00,66.6,59.2,29.97,NNW,334,1.0,9.0,77,0.00,,,0.00,meteohub,2013-06-15 12:01:00,
2013-06-15 08:02:00,66.6,59.2,29.97,WNW,293,3.0,9.0,77,0.00,,,0.00,meteohub,2013-06-15 12:02:00,
2013-06-15 08:04:00,66.6,59.2,29.97,WNW,284,0.0,9.0,77,0.00,,,0.00,meteohub,2013-06-15 12:04:00,
2013-06-15 08:05:00,66.7,59.4,29.97,WNW,285,0.0,9.0,77,0.00,,,0.00,meteohub,2013-06-15 12:05:00,
2013-06-15 08:06:00,66.7,59.7,29.97,NW,308,3.0,10.0,78,0.00,,,0.00,meteohub,2013-06-15 12:06:00,
2013-06-15 08:07:00,66.9,59.9,29.97,West,273,3.0,10.0,78,0.00,,,0.00,meteohub,2013-06-15 12:07:00,
2013-06-15 08:09:00,67.3,59.9,29.97,West,279,2.0,10.0,77,0.00,,,0.00,meteohub,2013-06-15 12:09:00,
2013-06-15 08:10:00,67.3,59.9,29.97,WNW,291,2.0,10.0,77,0.00,,,0.00,meteohub,2013-06-15 12:10:00,
2013-06-15 08:11:00,67.5,60.1,29.97,WNW,298,0.0,10.0,77,0.00,,,0.00,meteohub,2013-06-15 12:11:00,
2013-06-15 08:13:00,67.5,60.1,29.97,West,281,1.0,10.0,77,0.00,,,0.00,meteohub,2013-06-15 12:13:00,
2013-06-15 08:15:00,67.6,60.3,29.97,West,281,1.0,10.0,77,0.00,,,0.00,meteohub,2013-06-15 12:15:00,
2013-06-15 08:16:00,67.6,59.7,29.97,WNW,300,3.0,9.0,76,0.00,,,0.00,meteohub,2013-06-15 12:16:00,
2013-06-15 08:18:00,67.6,59.7,29.98,WNW,300,3.0,9.0,76,0.00,,,0.00,meteohub,2013-06-15 12:18:00,
2013-06-15 08:20:00,67.5,59.5,29.98,NNW,336,5.0,9.0,76,0.00,,,0.00,meteohub,2013-06-15 12:20:00,
2013-06-15 08:21:00,67.5,59.5,29.98,WNW,286,4.0,9.0,76,0.00,,,0.00,meteohub,2013-06-15 12:21:00,
2013-06-15 08:23:00,67.5,60.1,29.98,West,260,1.0,9.0,77,0.00,,,0.00,meteohub,2013-06-15 12:23:00,
2013-06-15 08:25:00,67.8,60.3,29.98,West,270,2.0,9.0,77,0.00,,,0.00,meteohub,2013-06-15 12:25:00,
2013-06-15 08:26:00,67.8,60.3,29.98,WNW,292,4.0,10.0,77,0.00,,,0.00,meteohub,2013-06-15 12:26:00,
2013-06-15 08:28:00,68.2,60.3,29.98,West,280,2.0,10.0,76,0.00,,,0.00,meteohub,2013-06-15 12:28:00,
2013-06-15 08:30:00,68.4,60.8,29.98,NNW,331,1.0,10.0,77,0.00,,,0.00,meteohub,2013-06-15 12:30:00,
2013-06-15 08:31:00,68.5,61.0,29.98,NNW,332,1.0,10.0,77,0.00,,,0.00,meteohub,2013-06-15 12:31:00,
2013-06-15 08:32:00,68.5,61.0,29.98,NNW,332,0.0,10.0,77,0.00,,,0.00,meteohub,2013-06-15 12:32:00,
2013-06-15 08:34:00,69.1,61.2,29.98,NE,34,3.0,10.0,76,0.00,,,0.00,meteohub,2013-06-15 12:34:00,
2013-06-15 08:36:00,69.3,61.0,29.98,WNW,285,3.0,8.0,75,0.00,,,0.00,meteohub,2013-06-15 12:36:00,
2013-06-15 08:37:00,69.3,61.0,29.98,WNW,290,4.0,8.0,75,0.00,,,0.00,meteohub,2013-06-15 12:37:00,
2013-06-15 08:39:00,69.4,60.8,29.98,WNW,296,2.0,8.0,74,0.00,,,0.00,meteohub,2013-06-15 12:39:00,
2013-06-15 08:41:00,69.4,60.8,29.98,WNW,288,2.0,8.0,74,0.00,,,0.00,meteohub,2013-06-15 12:41:00,
2013-06-15 08:42:00,69.4,60.4,29.98,WNW,282,0.0,8.0,73,0.00,,,0.00,meteohub,2013-06-15 12:42:00,
2013-06-15 08:43:00,69.6,61.0,29.98,WNW,292,2.0,8.0,74,0.00,,,0.00,meteohub,2013-06-15 12:43:00,
2013-06-15 08:45:00,70.0,61.3,29.99,NE,50,1.0,8.0,74,0.00,,,0.00,meteohub,2013-06-15 12:45:00,
2013-06-15 08:46:00,70.0,61.3,29.99,West,261,2.0,8.0,74,0.00,,,0.00,meteohub,2013-06-15 12:46:00,
2013-06-15 08:47:00,70.2,61.5,29.99,SW,228,3.0,8.0,74,0.00,,,0.00,meteohub,2013-06-15 12:47:00,
2013-06-15 08:49:00,70.3,61.3,29.99,WNW,288,3.0,8.0,73,0.00,,,0.00,meteohub,2013-06-15 12:49:00,
2013-06-15 08:51:00,70.7,61.7,29.99,WNW,292,1.0,7.0,73,0.00,,,0.00,meteohub,2013-06-15 12:51:00,
2013-06-15 08:52:00,70.9,61.3,29.99,WNW,301,1.0,7.0,72,0.00,,,0.00,meteohub,2013-06-15 12:52:00,
2013-06-15 08:54:00,70.9,61.0,29.99,NW,314,3.0,7.0,71,0.00,,,0.00,meteohub,2013-06-15 12:54:00,
2013-06-15 08:56:00,70.9,61.3,29.99,East,84,4.0,9.0,72,0.00,,,0.00,meteohub,2013-06-15 12:56:00,
2013-06-15 08:57:00,70.9,61.3,29.99,WNW,290,4.0,9.0,72,0.00,,,0.00,meteohub,2013-06-15 12:57:00,
2013-06-15 08:59:00,71.1,61.2,30.00,West,277,2.0,9.0,71,0.00,,,0.00,meteohub,2013-06-15 12:59:00,
2013-06-15 09:01:00,71.2,61.3,30.00,NW,319,2.0,9.0,71,0.00,,,0.00,meteohub,2013-06-15 13:01:00,
2013-06-15 09:02:00,71.2,61.3,30.00,NE,55,0.0,9.0,71,0.00,,,0.00,meteohub,2013-06-15 13:02:00,
2013-06-15 09:05:00,71.6,61.7,30.00,WNW,303,2.0,9.0,71,0.00,,,0.00,meteohub,2013-06-15 13:05:00,
2013-06-15 09:06:00,71.8,61.9,30.00,NNW,328,4.0,9.0,71,0.00,,,0.00,meteohub,2013-06-15 13:06:00,
2013-06-15 09:07:00,71.8,61.9,30.00,NW,313,4.0,9.0,71,0.00,,,0.00,meteohub,2013-06-15 13:07:00,
2013-06-15 09:08:00,71.8,61.5,30.00,East,87,2.0,9.0,70,0.00,,,0.00,meteohub,2013-06-15 13:08:00,
2013-06-15 09:10:00,72.0,61.7,30.00,West,277,2.0,9.0,70,0.00,,,0.00,meteohub,2013-06-15 13:10:00,
2013-06-15 09:11:00,72.0,61.7,30.00,North,351,0.0,9.0,70,0.00,,,0.00,meteohub,2013-06-15 13:11:00,
2013-06-15 09:12:00,72.0,61.7,30.00,WNW,284,2.0,9.0,70,0.00,,,0.00,meteohub,2013-06-15 13:12:00,
2013-06-15 09:13:00,72.0,61.7,30.00,NW,307,3.0,9.0,70,0.00,,,0.00,meteohub,2013-06-15 13:13:00,
2013-06-15 09:15:00,72.0,61.7,30.00,WNW,300,1.0,9.0,70,0.00,,,0.00,meteohub,2013-06-15 13:15:00,
2013-06-15 09:17:00,72.1,61.9,30.00,South,182,2.0,9.0,70,0.00,,,0.00,meteohub,2013-06-15 13:17:00,
2013-06-15 09:18:00,72.1,61.9,30.00,WSW,244,2.0,9.0,70,0.00,,,0.00,meteohub,2013-06-15 13:18:00,
2013-06-15 09:21:00,72.1,61.3,30.00,WNW,283,3.0,9.0,69,0.00,,,0.00,meteohub,2013-06-15 13:21:00,
2013-06-15 09:22:00,72.1,61.3,30.00,WSW,256,2.0,9.0,69,0.00,,,0.00,meteohub,2013-06-15 13:22:00,
2013-06-15 09:23:00,72.1,61.3,30.00,North,5,1.0,9.0,69,0.00,,,0.00,meteohub,2013-06-15 13:23:00,
2013-06-15 09:24:00,72.3,61.5,30.00,WNW,287,1.0,9.0,69,0.00,,,0.00,meteohub,2013-06-15 13:24:00,
2013-06-15 09:26:00,72.7,61.9,30.00,NW,307,1.0,9.0,69,0.00,,,0.00,meteohub,2013-06-15 13:26:00,
2013-06-15 09:27:00,72.7,61.9,30.00,NW,318,1.0,9.0,69,0.00,,,0.00,meteohub,2013-06-15 13:27:00,
2013-06-15 09:28:00,72.9,62.1,30.00,NW,317,6.0,9.0,69,0.00,,,0.00,meteohub,2013-06-15 13:28:00,
2013-06-15 09:29:00,72.9,61.7,30.00,West,277,0.0,9.0,68,0.00,,,0.00,meteohub,2013-06-15 13:29:00,
2013-06-15 09:31:00,73.0,61.9,30.00,North,0,1.0,9.0,68,0.00,,,0.00,meteohub,2013-06-15 13:31:00,
2013-06-15 09:32:00,73.0,61.9,30.00,SW,232,1.0,9.0,68,0.00,,,0.00,meteohub,2013-06-15 13:32:00,
2013-06-15 09:33:00,73.0,61.9,30.00,NW,323,1.0,9.0,68,0.00,,,0.00,meteohub,2013-06-15 13:33:00,
2013-06-15 09:35:00,73.4,62.2,30.00,WNW,293,3.0,10.0,68,0.00,,,0.00,meteohub,2013-06-15 13:35:00,
2013-06-15 09:36:00,73.6,61.9,30.00,NW,311,1.0,10.0,67,0.00,,,0.00,meteohub,2013-06-15 13:36:00,
2013-06-15 09:37:00,73.6,61.9,30.00,NW,311,0.0,10.0,67,0.00,,,0.00,meteohub,2013-06-15 13:37:00,
2013-06-15 09:38:00,73.6,61.9,30.00,NNW,339,3.0,10.0,67,0.00,,,0.00,meteohub,2013-06-15 13:38:00,
2013-06-15 09:39:00,73.8,62.1,30.00,NE,38,1.0,10.0,67,0.00,,,0.00,meteohub,2013-06-15 13:39:00,
2013-06-15 09:40:00,73.9,62.2,30.00,WNW,301,2.0,10.0,67,0.00,,,0.00,meteohub,2013-06-15 13:40:00,
2013-06-15 09:43:00,74.3,62.2,30.00,WNW,291,1.0,10.0,66,0.00,,,0.00,meteohub,2013-06-15 13:43:00,
2013-06-15 09:44:00,74.5,61.9,30.00,NW,316,1.0,10.0,65,0.00,,,0.00,meteohub,2013-06-15 13:44:00,
2013-06-15 09:45:00,74.5,61.9,30.00,WNW,283,3.0,10.0,65,0.00,,,0.00,meteohub,2013-06-15 13:45:00,
2013-06-15 09:48:00,74.5,61.5,30.00,WNW,300,1.0,10.0,64,0.00,,,0.00,meteohub,2013-06-15 13:48:00,
2013-06-15 09:49:00,74.5,61.5,30.00,WNW,282,1.0,10.0,64,0.00,,,0.00,meteohub,2013-06-15 13:49:00,
2013-06-15 09:50:00,74.5,61.5,30.00,West,280,0.0,10.0,64,0.00,,,0.00,meteohub,2013-06-15 13:50:00,
2013-06-15 09:51:00,74.7,61.7,30.00,NW,311,1.0,8.0,64,0.00,,,0.00,meteohub,2013-06-15 13:51:00,
2013-06-15 09:53:00,75.0,61.5,30.00,WNW,296,1.0,8.0,63,0.00,,,0.00,meteohub,2013-06-15 13:53:00,
2013-06-15 09:54:00,75.0,61.5,30.00,WNW,296,0.0,8.0,63,0.00,,,0.00,meteohub,2013-06-15 13:54:00,
2013-06-15 09:55:00,75.2,61.7,30.00,WNW,294,1.0,8.0,63,0.00,,,0.00,meteohub,2013-06-15 13:55:00,
2013-06-15 09:56:00,75.4,61.9,30.00,WNW,298,0.0,7.0,63,0.00,,,0.00,meteohub,2013-06-15 13:56:00,
2013-06-15 09:59:00,75.2,61.7,30.00,WNW,290,2.0,7.0,63,0.00,,,0.00,meteohub,2013-06-15 13:59:00,
2013-06-15 10:00:00,75.0,61.5,30.00,NNW,332,0.0,7.0,63,0.00,,,0.00,meteohub,2013-06-15 14:00:00,
2013-06-15 10:01:00,75.2,62.2,30.00,WNW,292,2.0,7.0,64,0.00,,,0.00,meteohub,2013-06-15 14:01:00,
2013-06-15 10:04:00,75.0,61.5,30.00,NNW,333,0.0,7.0,63,0.00,,,0.00,meteohub,2013-06-15 14:04:00,
2013-06-15 10:05:00,75.2,61.7,30.00,North,350,1.0,7.0,63,0.00,,,0.00,meteohub,2013-06-15 14:05:00,
2013-06-15 10:06:00,75.4,61.9,30.00,NNW,348,1.0,7.0,63,0.00,,,0.00,meteohub,2013-06-15 14:06:00,
2013-06-15 10:09:00,75.9,61.5,30.00,North,355,1.0,7.0,61,0.00,,,0.00,meteohub,2013-06-15 14:09:00,
2013-06-15 10:10:00,76.3,61.3,29.99,North,5,1.0,7.0,60,0.00,,,0.00,meteohub,2013-06-15 14:10:00,
2013-06-15 10:11:00,76.3,61.3,29.99,West,274,0.0,7.0,60,0.00,,,0.00,meteohub,2013-06-15 14:11:00,
2013-06-15 10:14:00,75.9,61.5,30.00,WNW,288,1.0,7.0,61,0.00,,,0.00,meteohub,2013-06-15 14:14:00,
2013-06-15 10:16:00,75.7,61.3,29.99,WNW,292,2.0,7.0,61,0.00,,,0.00,meteohub,2013-06-15 14:16:00,
2013-06-15 10:17:00,75.6,61.2,29.99,NW,305,4.0,7.0,61,0.00,,,0.00,meteohub,2013-06-15 14:17:00,
2013-06-15 10:19:00,75.6,61.7,29.99,NNW,333,0.0,7.0,62,0.00,,,0.00,meteohub,2013-06-15 14:19:00,
2013-06-15 10:21:00,75.6,61.7,29.99,NW,305,4.0,7.0,62,0.00,,,0.00,meteohub,2013-06-15 14:21:00,
2013-06-15 10:22:00,75.6,61.2,29.99,WNW,285,2.0,7.0,61,0.00,,,0.00,meteohub,2013-06-15 14:22:00,
2013-06-15 10:24:00,75.7,60.8,29.99,NNW,329,5.0,7.0,60,0.00,,,0.00,meteohub,2013-06-15 14:24:00,
2013-06-15 10:26:00,75.7,60.4,29.99,WNW,292,4.0,7.0,59,0.00,,,0.00,meteohub,2013-06-15 14:26:00,
2013-06-15 10:27:00,75.7,60.4,29.99,West,278,6.0,7.0,59,0.00,,,0.00,meteohub,2013-06-15 14:27:00,
2013-06-15 10:28:00,75.7,60.8,29.99,NW,318,1.0,7.0,60,0.00,,,0.00,meteohub,2013-06-15 14:28:00,
2013-06-15 10:31:00,76.3,60.4,29.99,WNW,284,1.0,8.0,58,0.00,,,0.00,meteohub,2013-06-15 14:31:00,
2013-06-15 10:32:00,76.5,60.6,29.99,West,279,0.0,8.0,58,0.00,,,0.00,meteohub,2013-06-15 14:32:00,
2013-06-15 10:34:00,76.6,60.3,29.99,WNW,285,6.0,8.0,57,0.00,,,0.00,meteohub,2013-06-15 14:34:00,
2013-06-15 10:37:00,76.8,60.4,29.99,SE,137,0.0,9.0,57,0.00,,,0.00,meteohub,2013-06-15 14:37:00,
2013-06-15 10:38:00,77.2,61.3,29.99,WSW,240,3.0,9.0,58,0.00,,,0.00,meteohub,2013-06-15 14:38:00,
2013-06-15 10:39:00,77.2,60.8,29.99,WSW,252,1.0,9.0,57,0.00,,,0.00,meteohub,2013-06-15 14:39:00,
2013-06-15 10:42:00,76.8,60.4,29.99,West,279,1.0,9.0,57,0.00,,,0.00,meteohub,2013-06-15 14:42:00,
2013-06-15 10:43:00,76.8,61.0,29.99,West,279,6.0,9.0,58,0.00,,,0.00,meteohub,2013-06-15 14:43:00,
2013-06-15 10:44:00,76.6,60.3,29.99,WNW,302,2.0,9.0,57,0.00,,,0.00,meteohub,2013-06-15 14:44:00,
2013-06-15 10:48:00,76.5,60.1,29.99,WNW,285,8.0,10.0,57,0.00,,,0.00,meteohub,2013-06-15 14:48:00,
2013-06-15 10:49:00,76.3,60.4,29.99,NW,317,5.0,10.0,58,0.00,,,0.00,meteohub,2013-06-15 14:49:00,
2013-06-15 10:53:00,76.5,60.1,29.99,West,273,8.0,10.0,57,0.00,,,0.00,meteohub,2013-06-15 14:53:00,
2013-06-15 10:54:00,76.6,59.7,29.99,WNW,284,4.0,10.0,56,0.00,,,0.00,meteohub,2013-06-15 14:54:00,
2013-06-15 10:58:00,77.2,59.2,29.99,West,279,3.0,10.0,54,0.00,,,0.00,meteohub,2013-06-15 14:58:00,
2013-06-15 10:59:00,77.2,58.6,29.99,NW,311,3.0,10.0,53,0.00,,,0.00,meteohub,2013-06-15 14:59:00,
2013-06-15 11:00:00,77.4,58.8,29.99,NNW,336,1.0,10.0,53,0.00,,,0.00,meteohub,2013-06-15 15:00:00,
2013-06-15 11:04:00,78.3,59.2,29.99,WNW,286,0.0,10.0,52,0.00,,,0.00,meteohub,2013-06-15 15:04:00,
2013-06-15 11:05:00,78.4,59.4,29.99,WNW,286,6.0,10.0,52,0.00,,,0.00,meteohub,2013-06-15 15:05:00,
2013-06-15 11:09:00,78.4,59.9,29.99,West,281,8.0,10.0,53,0.00,,,0.00,meteohub,2013-06-15 15:09:00,
2013-06-15 11:10:00,78.4,59.9,29.99,WNW,293,2.0,10.0,53,0.00,,,0.00,meteohub,2013-06-15 15:10:00,
2013-06-15 11:11:00,78.4,59.4,29.99,West,281,4.0,8.0,52,0.00,,,0.00,meteohub,2013-06-15 15:11:00,
2013-06-15 11:14:00,78.3,58.1,29.99,WNW,297,4.0,8.0,50,0.00,,,0.00,meteohub,2013-06-15 15:14:00,
2013-06-15 11:15:00,78.1,58.5,29.99,WSW,258,7.0,8.0,51,0.00,,,0.00,meteohub,2013-06-15 15:15:00,
2013-06-15 11:16:00,78.1,58.5,29.99,NW,318,2.0,9.0,51,0.00,,,0.00,meteohub,2013-06-15 15:16:00,
2013-06-15 11:19:00,78.1,59.0,29.99,NW,319,1.0,9.0,52,0.00,,,0.00,meteohub,2013-06-15 15:19:00,
2013-06-15 11:20:00,78.3,59.2,29.99,WSW,254,1.0,9.0,52,0.00,,,0.00,meteohub,2013-06-15 15:20:00,
2013-06-15 11:21:00,78.4,59.4,29.99,WNW,298,2.0,9.0,52,0.00,,,0.00,meteohub,2013-06-15 15:21:00,
2013-06-15 11:22:00,78.6,59.5,29.99,WNW,296,5.0,9.0,52,0.00,,,0.00,meteohub,2013-06-15 15:22:00,
2013-06-15 11:24:00,78.6,59.0,29.99,WNW,292,0.0,9.0,51,0.00,,,0.00,meteohub,2013-06-15 15:24:00,
2013-06-15 11:25:00,78.6,59.0,29.99,West,263,1.0,9.0,51,0.00,,,0.00,meteohub,2013-06-15 15:25:00,
2013-06-15 11:26:00,78.8,59.2,29.99,West,273,3.0,9.0,51,0.00,,,0.00,meteohub,2013-06-15 15:26:00,
2013-06-15 11:27:00,78.8,58.6,29.99,WNW,289,1.0,9.0,50,0.00,,,0.00,meteohub,2013-06-15 15:27:00,
2013-06-15 11:29:00,79.2,58.3,29.99,WNW,290,5.0,9.0,49,0.00,,,0.00,meteohub,2013-06-15 15:29:00,
2013-06-15 11:30:00,79.2,58.3,29.99,WNW,295,1.0,9.0,49,0.00,,,0.00,meteohub,2013-06-15 15:30:00,
2013-06-15 11:31:00,79.2,59.0,29.99,West,280,2.0,9.0,50,0.00,,,0.00,meteohub,2013-06-15 15:31:00,
2013-06-15 11:32:00,79.2,59.0,29.99,West,261,8.0,9.0,50,0.00,,,0.00,meteohub,2013-06-15 15:32:00,
2013-06-15 11:35:00,78.8,58.1,29.99,West,271,4.0,9.0,49,0.00,,,0.00,meteohub,2013-06-15 15:35:00,
2013-06-15 11:36:00,78.6,58.5,29.99,West,281,4.0,11.0,50,0.00,,,0.00,meteohub,2013-06-15 15:36:00,
2013-06-15 11:37:00,78.6,58.5,29.99,NW,304,0.0,11.0,50,0.00,,,0.00,meteohub,2013-06-15 15:37:00,
2013-06-15 11:39:00,79.0,58.8,29.99,SW,226,2.0,11.0,50,0.00,,,0.00,meteohub,2013-06-15 15:39:00,
2013-06-15 11:40:00,79.2,56.7,29.98,WNW,300,3.0,11.0,46,0.00,,,0.00,meteohub,2013-06-15 15:40:00,
2013-06-15 11:41:00,79.2,56.7,29.99,WNW,286,4.0,11.0,46,0.00,,,0.00,meteohub,2013-06-15 15:41:00,
2013-06-15 11:42:00,79.3,56.8,29.98,WNW,282,3.0,11.0,46,0.00,,,0.00,meteohub,2013-06-15 15:42:00,
2013-06-15 11:43:00,79.5,55.8,29.99,WNW,296,4.0,11.0,44,0.00,,,0.00,meteohub,2013-06-15 15:43:00,
2013-06-15 11:44:00,79.7,55.2,29.99,West,278,0.0,11.0,43,0.00,,,0.00,meteohub,2013-06-15 15:44:00,
2013-06-15 11:45:00,80.1,55.6,29.99,NE,53,0.0,11.0,43,0.00,,,0.00,meteohub,2013-06-15 15:45:00,
2013-06-15 11:46:00,80.2,55.8,29.99,West,271,6.0,11.0,43,0.00,,,0.00,meteohub,2013-06-15 15:46:00,
2013-06-15 11:47:00,80.1,55.6,29.98,WNW,282,8.0,11.0,43,0.00,,,0.00,meteohub,2013-06-15 15:47:00,
2013-06-15 11:48:00,79.9,55.9,29.98,West,273,3.0,11.0,44,0.00,,,0.00,meteohub,2013-06-15 15:48:00,
2013-06-15 11:50:00,79.9,55.4,29.98,WSW,257,2.0,11.0,43,0.00,,,0.00,meteohub,2013-06-15 15:50:00,
2013-06-15 11:51:00,79.9,55.9,29.98,WNW,286,3.0,10.0,44,0.00,,,0.00,meteohub,2013-06-15 15:51:00,
2013-06-15 11:52:00,79.9,56.7,29.98,WNW,300,3.0,10.0,45,0.00,,,0.00,meteohub,2013-06-15 15:52:00,
2013-06-15 11:53:00,80.1,56.1,29.98,WSW,248,2.0,10.0,44,0.00,,,0.00,meteohub,2013-06-15 15:53:00,
2013-06-15 11:55:00,80.2,55.8,29.98,WNW,290,3.0,10.0,43,0.00,,,0.00,meteohub,2013-06-15 15:55:00,
2013-06-15 11:56:00,80.2,55.0,29.98,SW,235,3.0,10.0,42,0.00,,,0.00,meteohub,2013-06-15 15:56:00,
2013-06-15 11:57:00,80.1,54.9,29.98,SW,229,4.0,10.0,42,0.00,,,0.00,meteohub,2013-06-15 15:57:00,
2013-06-15 11:59:00,79.9,55.4,29.98,West,278,11.0,11.0,43,0.00,,,0.00,meteohub,2013-06-15 15:59:00,
2013-06-15 12:01:00,79.7,55.9,29.98,WSW,240,6.0,11.0,44,0.00,,,0.00,meteohub,2013-06-15 16:01:00,
2013-06-15 12:02:00,79.5,55.8,29.98,WNW,287,1.0,11.0,44,0.00,,,0.00,meteohub,2013-06-15 16:02:00,
2013-06-15 12:04:00,79.7,57.0,29.98,West,275,3.0,11.0,46,0.00,,,0.00,meteohub,2013-06-15 16:04:00,
2013-06-15 12:06:00,80.1,56.8,29.98,WNW,289,5.0,11.0,45,0.00,,,0.00,meteohub,2013-06-15 16:06:00,
2013-06-15 12:07:00,80.1,56.8,29.98,West,269,3.0,11.0,45,0.00,,,0.00,meteohub,2013-06-15 16:07:00,
2013-06-15 12:08:00,80.1,56.8,29.98,West,277,3.0,11.0,45,0.00,,,0.00,meteohub,2013-06-15 16:08:00,
2013-06-15 12:09:00,80.2,57.6,29.98,West,267,3.0,11.0,46,0.00,,,0.00,meteohub,2013-06-15 16:09:00,
2013-06-15 12:11:00,80.2,57.0,29.98,WSW,244,2.0,11.0,45,0.00,,,0.00,meteohub,2013-06-15 16:11:00,
2013-06-15 12:12:00,80.4,57.2,29.98,West,261,6.0,11.0,45,0.00,,,0.00,meteohub,2013-06-15 16:12:00,
2013-06-15 12:13:00,80.4,57.2,29.98,WNW,300,4.0,11.0,45,0.00,,,0.00,meteohub,2013-06-15 16:13:00,
2013-06-15 12:14:00,80.2,57.0,29.98,West,265,1.0,11.0,45,0.00,,,0.00,meteohub,2013-06-15 16:14:00,
2013-06-15 12:15:00,80.2,57.6,29.98,WNW,302,3.0,11.0,46,0.00,,,0.00,meteohub,2013-06-15 16:15:00,
2013-06-15 12:16:00,80.1,57.4,29.98,West,264,2.0,10.0,46,0.00,,,0.00,meteohub,2013-06-15 16:16:00,
2013-06-15 12:18:00,79.9,56.7,29.98,WNW,300,2.0,10.0,45,0.00,,,0.00,meteohub,2013-06-15 16:18:00,
2013-06-15 12:19:00,79.7,57.7,29.99,WSW,248,2.0,10.0,47,0.00,,,0.00,meteohub,2013-06-15 16:19:00,
2013-06-15 12:20:00,79.7,58.3,29.98,WNW,292,1.0,10.0,48,0.00,,,0.00,meteohub,2013-06-15 16:20:00,
2013-06-15 12:22:00,79.7,56.5,29.98,WNW,292,5.0,10.0,45,0.00,,,0.00,meteohub,2013-06-15 16:22:00,
2013-06-15 12:23:00,79.7,55.9,29.98,SW,223,4.0,10.0,44,0.00,,,0.00,meteohub,2013-06-15 16:23:00,
2013-06-15 12:24:00,79.7,55.9,29.98,WNW,286,4.0,10.0,44,0.00,,,0.00,meteohub,2013-06-15 16:24:00,
2013-06-15 12:25:00,79.9,55.9,29.98,West,268,4.0,10.0,44,0.00,,,0.00,meteohub,2013-06-15 16:25:00,
2013-06-15 12:27:00,79.9,55.9,29.98,West,275,3.0,12.0,44,0.00,,,0.00,meteohub,2013-06-15 16:27:00,
2013-06-15 12:28:00,80.1,56.1,29.98,West,281,2.0,12.0,44,0.00,,,0.00,meteohub,2013-06-15 16:28:00,
2013-06-15 12:29:00,80.1,56.1,29.98,West,279,4.0,12.0,44,0.00,,,0.00,meteohub,2013-06-15 16:29:00,
2013-06-15 12:31:00,80.4,55.9,29.98,WNW,284,6.0,12.0,43,0.00,,,0.00,meteohub,2013-06-15 16:31:00,
2013-06-15 12:32:00,80.8,56.8,29.99,WSW,255,3.0,12.0,44,0.00,,,0.00,meteohub,2013-06-15 16:32:00,
2013-06-15 12:33:00,80.8,56.8,29.99,WSW,242,3.0,12.0,44,0.00,,,0.00,meteohub,2013-06-15 16:33:00,
2013-06-15 12:34:00,80.8,56.8,29.98,West,265,3.0,12.0,44,0.00,,,0.00,meteohub,2013-06-15 16:34:00,
2013-06-15 12:35:00,81.0,57.0,29.99,West,280,4.0,12.0,44,0.00,,,0.00,meteohub,2013-06-15 16:35:00,
2013-06-15 12:37:00,80.8,56.1,29.99,WNW,292,4.0,12.0,43,0.00,,,0.00,meteohub,2013-06-15 16:37:00,
2013-06-15 12:38:00,80.6,56.1,29.98,West,271,1.0,12.0,43,0.00,,,0.00,meteohub,2013-06-15 16:38:00,
2013-06-15 12:39:00,80.8,56.1,29.98,WNW,300,10.0,12.0,43,0.00,,,0.00,meteohub,2013-06-15 16:39:00,
2013-06-15 12:40:00,80.6,55.4,29.98,WNW,285,4.0,9.0,42,0.00,,,0.00,meteohub,2013-06-15 16:40:00,
2013-06-15 12:42:00,80.8,56.1,29.98,North,355,3.0,9.0,43,0.00,,,0.00,meteohub,2013-06-15 16:42:00,
2013-06-15 12:44:00,81.0,55.8,29.98,West,275,2.0,9.0,42,0.00,,,0.00,meteohub,2013-06-15 16:44:00,
2013-06-15 12:45:00,81.1,55.9,29.98,WSW,251,4.0,11.0,42,0.00,,,0.00,meteohub,2013-06-15 16:45:00,
2013-06-15 12:47:00,81.0,57.0,29.98,WSW,248,4.0,11.0,44,0.00,,,0.00,meteohub,2013-06-15 16:47:00,
2013-06-15 12:49:00,80.6,56.1,29.98,WNW,300,5.0,11.0,43,0.00,,,0.00,meteohub,2013-06-15 16:49:00,
2013-06-15 12:50:00,80.2,55.8,29.98,WSW,238,5.0,11.0,43,0.00,,,0.00,meteohub,2013-06-15 16:50:00,
2013-06-15 12:52:00,79.9,57.2,29.98,WSW,245,4.0,11.0,46,0.00,,,0.00,meteohub,2013-06-15 16:52:00,
2013-06-15 12:55:00,79.3,56.1,29.97,SSW,207,7.0,11.0,45,0.00,,,0.00,meteohub,2013-06-15 16:55:00,
2013-06-15 12:57:00,79.2,57.2,29.97,NW,304,8.0,11.0,47,0.00,,,0.00,meteohub,2013-06-15 16:57:00,
2013-06-15 13:00:00,79.3,57.4,29.97,WNW,294,1.0,11.0,47,0.00,,,0.00,meteohub,2013-06-15 17:00:00,
2013-06-15 13:01:00,79.3,57.4,29.97,WNW,285,7.0,13.0,47,0.00,,,0.00,meteohub,2013-06-15 17:01:00,
2013-06-15 13:03:00,79.3,57.4,29.97,SW,228,3.0,13.0,47,0.00,,,0.00,meteohub,2013-06-15 17:03:00,
2013-06-15 13:05:00,79.2,57.7,29.97,WSW,253,8.0,13.0,48,0.00,,,0.00,meteohub,2013-06-15 17:05:00,
2013-06-15 13:06:00,79.0,57.6,29.97,WNW,291,5.0,13.0,48,0.00,,,0.00,meteohub,2013-06-15 17:06:00,
2013-06-15 13:08:00,79.0,56.5,29.97,WNW,286,6.0,13.0,46,0.00,,,0.00,meteohub,2013-06-15 17:08:00,
2013-06-15 13:10:00,79.0,57.0,29.97,WSW,250,7.0,13.0,47,0.00,,,0.00,meteohub,2013-06-15 17:10:00,
2013-06-15 13:11:00,79.2,57.2,29.97,NW,317,4.0,15.0,47,0.00,,,0.00,meteohub,2013-06-15 17:11:00,
2013-06-15 13:13:00,79.3,56.8,29.97,WSW,246,4.0,15.0,46,0.00,,,0.00,meteohub,2013-06-15 17:13:00,
2013-06-15 13:15:00,79.3,56.8,29.97,SW,234,5.0,15.0,46,0.00,,,0.00,meteohub,2013-06-15 17:15:00,
2013-06-15 13:16:00,79.3,56.8,29.97,WNW,287,10.0,15.0,46,0.00,,,0.00,meteohub,2013-06-15 17:16:00,
2013-06-15 13:18:00,79.5,56.3,29.96,SSW,212,9.0,15.0,45,0.00,,,0.00,meteohub,2013-06-15 17:18:00,
2013-06-15 13:20:00,79.5,55.8,29.96,WSW,258,7.0,15.0,44,0.00,,,0.00,meteohub,2013-06-15 17:20:00,
2013-06-15 13:21:00,79.5,55.8,29.97,WSW,254,7.0,15.0,44,0.00,,,0.00,meteohub,2013-06-15 17:21:00,
2013-06-15 13:22:00,79.5,55.8,29.97,WSW,244,4.0,15.0,44,0.00,,,0.00,meteohub,2013-06-15 17:22:00,
2013-06-15 13:24:00,79.7,56.5,29.96,WNW,294,4.0,15.0,45,0.00,,,0.00,meteohub,2013-06-15 17:24:00,
2013-06-15 13:25:00,79.9,57.2,29.96,WNW,290,3.0,11.0,46,0.00,,,0.00,meteohub,2013-06-15 17:25:00,
2013-06-15 13:26:00,80.1,57.4,29.96,West,277,3.0,11.0,46,0.00,,,0.00,meteohub,2013-06-15 17:26:00,
2013-06-15 13:27:00,80.1,58.1,29.96,West,280,6.0,11.0,47,0.00,,,0.00,meteohub,2013-06-15 17:27:00,
2013-06-15 13:29:00,80.2,58.1,29.96,SW,225,6.0,11.0,47,0.00,,,0.00,meteohub,2013-06-15 17:29:00,
2013-06-15 13:31:00,80.4,57.7,29.96,West,259,4.0,11.0,46,0.00,,,0.00,meteohub,2013-06-15 17:31:00,
2013-06-15 13:32:00,80.4,57.7,29.96,WNW,283,3.0,11.0,46,0.00,,,0.00,meteohub,2013-06-15 17:32:00,
2013-06-15 13:33:00,80.2,57.0,29.96,NW,306,2.0,11.0,45,0.00,,,0.00,meteohub,2013-06-15 17:33:00,
2013-06-15 13:34:00,80.2,57.6,29.96,NNW,332,4.0,11.0,46,0.00,,,0.00,meteohub,2013-06-15 17:34:00,
2013-06-15 13:36:00,80.4,57.7,29.96,WSW,242,6.0,9.0,46,0.00,,,0.00,meteohub,2013-06-15 17:36:00,
2013-06-15 13:37:00,80.4,59.0,29.96,WSW,247,3.0,9.0,48,0.00,,,0.00,meteohub,2013-06-15 17:37:00,
2013-06-15 13:38:00,80.4,59.5,29.96,WNW,283,7.0,9.0,49,0.00,,,0.00,meteohub,2013-06-15 17:38:00,
2013-06-15 13:39:00,80.4,59.0,29.96,West,275,4.0,9.0,48,0.00,,,0.00,meteohub,2013-06-15 17:39:00,
2013-06-15 13:40:00,80.4,57.7,29.96,West,271,4.0,10.0,46,0.00,,,0.00,meteohub,2013-06-15 17:40:00,
2013-06-15 13:41:00,80.6,57.9,29.96,WSW,239,4.0,10.0,46,0.00,,,0.00,meteohub,2013-06-15 17:41:00,
2013-06-15 13:42:00,80.4,57.7,29.96,West,269,2.0,10.0,46,0.00,,,0.00,meteohub,2013-06-15 17:42:00,
2013-06-15 13:43:00,80.2,57.6,29.96,West,264,6.0,10.0,46,0.00,,,0.00,meteohub,2013-06-15 17:43:00,
2013-06-15 13:44:00,80.2,58.1,29.96,WSW,254,2.0,10.0,47,0.00,,,0.00,meteohub,2013-06-15 17:44:00,
2013-06-15 13:46:00,80.1,57.4,29.96,West,265,2.0,11.0,46,0.00,,,0.00,meteohub,2013-06-15 17:46:00,
2013-06-15 13:47:00,79.9,57.9,29.96,West,277,4.0,11.0,47,0.00,,,0.00,meteohub,2013-06-15 17:47:00,
2013-06-15 13:48:00,80.1,58.6,29.96,WSW,257,3.0,11.0,48,0.00,,,0.00,meteohub,2013-06-15 17:48:00,
2013-06-15 13:50:00,80.1,59.2,29.96,WSW,239,10.0,11.0,49,0.00,,,0.00,meteohub,2013-06-15 17:50:00,
2013-06-15 13:51:00,80.1,57.4,29.96,WSW,238,8.0,11.0,46,0.00,,,0.00,meteohub,2013-06-15 17:51:00,
2013-06-15 13:52:00,80.1,57.4,29.95,WSW,244,5.0,11.0,46,0.00,,,0.00,meteohub,2013-06-15 17:52:00,
2013-06-15 13:53:00,80.1,57.4,29.95,SW,234,7.0,11.0,46,0.00,,,0.00,meteohub,2013-06-15 17:53:00,
2013-06-15 13:54:00,80.1,57.4,29.95,SW,233,8.0,11.0,46,0.00,,,0.00,meteohub,2013-06-15 17:54:00,
2013-06-15 13:55:00,80.1,57.4,29.95,WNW,284,3.0,11.0,46,0.00,,,0.00,meteohub,2013-06-15 17:55:00,
2013-06-15 13:56:00,80.2,58.1,29.95,SW,235,11.0,14.0,47,0.00,,,0.00,meteohub,2013-06-15 17:56:00,
2013-06-15 13:57:00,80.4,58.3,29.95,WSW,245,5.0,14.0,47,0.00,,,0.00,meteohub,2013-06-15 17:57:00,
2013-06-15 13:58:00,80.4,58.3,29.95,SW,223,4.0,14.0,47,0.00,,,0.00,meteohub,2013-06-15 17:58:00,
2013-06-15 13:59:00,80.4,58.3,29.95,WNW,294,5.0,14.0,47,0.00,,,0.00,meteohub,2013-06-15 17:59:00,
2013-06-15 14:00:00,80.4,57.7,29.95,WSW,243,6.0,14.0,46,0.00,,,0.00,meteohub,2013-06-15 18:00:00,
2013-06-15 14:01:00,80.4,59.0,29.95,WSW,237,11.0,14.0,48,0.00,,,0.00,meteohub,2013-06-15 18:01:00,
2013-06-15 14:02:00,80.4,59.0,29.95,West,261,2.0,14.0,48,0.00,,,0.00,meteohub,2013-06-15 18:02:00,
2013-06-15 14:04:00,80.4,58.3,29.95,West,263,2.0,14.0,47,0.00,,,0.00,meteohub,2013-06-15 18:04:00,
2013-06-15 14:05:00,80.8,58.1,29.95,West,267,4.0,13.0,46,0.00,,,0.00,meteohub,2013-06-15 18:05:00,
2013-06-15 14:06:00,80.8,58.1,29.95,West,277,7.0,13.0,46,0.00,,,0.00,meteohub,2013-06-15 18:06:00,
2013-06-15 14:07:00,80.8,58.1,29.95,West,271,9.0,13.0,46,0.00,,,0.00,meteohub,2013-06-15 18:07:00,
2013-06-15 14:09:00,81.0,59.4,29.96,WSW,238,3.0,13.0,48,0.00,,,0.00,meteohub,2013-06-15 18:09:00,
2013-06-15 14:10:00,81.0,58.8,29.96,West,266,2.0,12.0,47,0.00,,,0.00,meteohub,2013-06-15 18:10:00,
2013-06-15 14:11:00,81.0,58.8,29.96,WSW,258,2.0,12.0,47,0.00,,,0.00,meteohub,2013-06-15 18:11:00,
2013-06-15 14:12:00,81.0,58.8,29.96,WSW,250,4.0,12.0,47,0.00,,,0.00,meteohub,2013-06-15 18:12:00,
2013-06-15 14:14:00,81.3,58.6,29.96,SW,223,4.0,12.0,46,0.00,,,0.00,meteohub,2013-06-15 18:14:00,
2013-06-15 14:16:00,81.3,57.9,29.96,WNW,299,7.0,11.0,45,0.00,,,0.00,meteohub,2013-06-15 18:16:00,
2013-06-15 14:17:00,81.3,57.4,29.96,West,272,3.0,11.0,44,0.00,,,0.00,meteohub,2013-06-15 18:17:00,
2013-06-15 14:18:00,81.1,57.7,29.96,SW,222,7.0,11.0,45,0.00,,,0.00,meteohub,2013-06-15 18:18:00,
2013-06-15 14:19:00,81.1,57.7,29.96,WSW,249,3.0,11.0,45,0.00,,,0.00,meteohub,2013-06-15 18:19:00,
2013-06-15 14:21:00,81.0,57.6,29.96,WSW,241,4.0,11.0,45,0.00,,,0.00,meteohub,2013-06-15 18:21:00,
2013-06-15 14:22:00,81.0,58.8,29.96,West,259,3.0,11.0,47,0.00,,,0.00,meteohub,2013-06-15 18:22:00,
2013-06-15 14:23:00,81.0,57.6,29.96,WNW,284,12.0,12.0,45,0.00,,,0.00,meteohub,2013-06-15 18:23:00,
2013-06-15 14:24:00,81.0,56.3,29.96,West,275,2.0,11.0,43,0.00,,,0.00,meteohub,2013-06-15 18:24:00,
2013-06-15 14:25:00,81.0,57.0,29.96,WSW,242,4.0,11.0,44,0.00,,,0.00,meteohub,2013-06-15 18:25:00,
2013-06-15 14:27:00,80.8,56.8,29.96,SW,234,5.0,12.0,44,0.00,,,0.00,meteohub,2013-06-15 18:27:00,
2013-06-15 14:28:00,80.6,57.4,29.96,WSW,249,8.0,12.0,45,0.00,,,0.00,meteohub,2013-06-15 18:28:00,
2013-06-15 14:30:00,80.2,57.0,29.96,WSW,251,8.0,12.0,45,0.00,,,0.00,meteohub,2013-06-15 18:30:00,
2013-06-15 14:32:00,80.2,58.1,29.96,SSW,213,4.0,13.0,47,0.00,,,0.00,meteohub,2013-06-15 18:32:00,
2013-06-15 14:33:00,80.2,58.8,29.96,SW,233,5.0,13.0,48,0.00,,,0.00,meteohub,2013-06-15 18:33:00,
2013-06-15 14:34:00,80.2,58.8,29.96,West,260,4.0,13.0,48,0.00,,,0.00,meteohub,2013-06-15 18:34:00,
2013-06-15 14:35:00,80.2,58.8,29.96,WSW,248,7.0,13.0,48,0.00,,,0.00,meteohub,2013-06-15 18:35:00,
2013-06-15 14:37:00,80.6,57.9,29.95,WSW,238,4.0,13.0,46,0.00,,,0.00,meteohub,2013-06-15 18:37:00,
2013-06-15 14:39:00,81.0,57.6,29.95,West,267,8.0,13.0,45,0.00,,,0.00,meteohub,2013-06-15 18:39:00,
2013-06-15 14:40:00,81.0,57.6,29.95,SW,225,6.0,13.0,45,0.00,,,0.00,meteohub,2013-06-15 18:40:00,
2013-06-15 14:41:00,81.1,57.2,29.95,WNW,286,4.0,12.0,44,0.00,,,0.00,meteohub,2013-06-15 18:41:00,
2013-06-15 14:43:00,81.3,57.9,29.95,WSW,257,3.0,12.0,45,0.00,,,0.00,meteohub,2013-06-15 18:43:00,
2013-06-15 14:44:00,81.7,57.6,29.95,WNW,284,9.0,12.0,44,0.00,,,0.00,meteohub,2013-06-15 18:44:00,
2013-06-15 14:45:00,81.7,57.6,29.95,WNW,282,8.0,12.0,44,0.00,,,0.00,meteohub,2013-06-15 18:45:00,
2013-06-15 14:46:00,81.3,56.7,29.95,West,275,6.0,12.0,43,0.00,,,0.00,meteohub,2013-06-15 18:46:00,
2013-06-15 14:48:00,81.1,55.9,29.95,West,278,7.0,12.0,42,0.00,,,0.00,meteohub,2013-06-15 18:48:00,
2013-06-15 14:50:00,81.0,55.8,29.95,WNW,301,4.0,12.0,42,0.00,,,0.00,meteohub,2013-06-15 18:50:00,
2013-06-15 14:51:00,81.0,55.8,29.95,WSW,238,6.0,12.0,42,0.00,,,0.00,meteohub,2013-06-15 18:51:00,
2013-06-15 14:52:00,81.0,57.0,29.95,WSW,244,9.0,12.0,44,0.00,,,0.00,meteohub,2013-06-15 18:52:00,
2013-06-15 14:55:00,81.1,60.1,29.95,SSW,201,4.0,12.0,49,0.00,,,0.00,meteohub,2013-06-15 18:55:00,
2013-06-15 14:57:00,80.4,62.2,29.95,SW,227,3.0,12.0,54,0.00,,,0.00,meteohub,2013-06-15 18:57:00,
2013-06-15 15:00:00,77.7,62.8,29.95,SW,217,9.0,11.0,60,0.00,,,0.00,meteohub,2013-06-15 19:00:00,
2013-06-15 15:01:00,77.4,62.8,29.95,SSW,192,5.0,11.0,61,0.00,,,0.00,meteohub,2013-06-15 19:01:00,
2013-06-15 15:02:00,76.8,62.8,29.95,SSE,161,7.0,11.0,62,0.00,,,0.00,meteohub,2013-06-15 19:02:00,
2013-06-15 15:03:00,75.7,62.8,29.94,SE,140,7.0,11.0,64,0.00,,,0.00,meteohub,2013-06-15 19:03:00,
2013-06-15 15:05:00,75.0,63.0,29.94,WSW,249,2.0,11.0,66,0.00,,,0.00,meteohub,2013-06-15 19:05:00,
2013-06-15 15:07:00,75.0,61.5,29.94,WNW,295,5.0,11.0,63,0.00,,,0.00,meteohub,2013-06-15 19:07:00,
2013-06-15 15:09:00,75.9,58.1,29.95,SSW,207,5.0,11.0,54,0.00,,,0.00,meteohub,2013-06-15 19:09:00,
2013-06-15 15:10:00,77.0,57.0,29.94,WSW,244,3.0,11.0,50,0.00,,,0.00,meteohub,2013-06-15 19:10:00,
2013-06-15 15:12:00,77.9,56.7,29.94,SW,236,4.0,11.0,48,0.00,,,0.00,meteohub,2013-06-15 19:12:00,
2013-06-15 15:13:00,78.4,59.4,29.95,SW,227,1.0,11.0,52,0.00,,,0.00,meteohub,2013-06-15 19:13:00,
2013-06-15 15:14:00,78.6,61.2,29.95,WSW,247,2.0,11.0,55,0.00,,,0.00,meteohub,2013-06-15 19:14:00,
2013-06-15 15:16:00,78.3,62.2,29.95,SSW,196,1.0,12.0,58,0.00,,,0.00,meteohub,2013-06-15 19:16:00,
2013-06-15 15:17:00,78.1,62.1,29.95,SSW,196,0.0,12.0,58,0.00,,,0.00,meteohub,2013-06-15 19:17:00,
2013-06-15 15:18:00,78.1,62.1,29.95,SSW,196,0.0,12.0,58,0.00,,,0.00,meteohub,2013-06-15 19:18:00,
2013-06-15 15:19:00,77.7,62.2,29.95,WSW,257,0.0,12.0,59,0.00,,,0.00,meteohub,2013-06-15 19:19:00,
2013-06-15 15:23:00,77.7,62.2,29.94,SW,234,2.0,12.0,59,0.00,,,0.00,meteohub,2013-06-15 19:23:00,
2013-06-15 15:25:00,77.2,62.6,29.94,SSW,195,2.0,12.0,61,0.00,,,0.00,meteohub,2013-06-15 19:25:00,
2013-06-15 15:28:00,77.4,56.7,29.94,WSW,246,3.0,7.0,49,0.00,,,0.00,meteohub,2013-06-15 19:28:00,
2013-06-15 15:30:00,78.4,57.7,29.94,SW,216,3.0,7.0,49,0.00,,,0.00,meteohub,2013-06-15 19:30:00,
2013-06-15 15:33:00,80.1,59.2,29.94,South,182,6.0,12.0,49,0.00,,,0.00,meteohub,2013-06-15 19:33:00,
2013-06-15 15:34:00,80.2,62.6,29.94,South,184,4.0,12.0,55,0.00,,,0.00,meteohub,2013-06-15 19:34:00,
2013-06-15 15:35:00,80.2,63.1,29.94,SW,221,0.0,12.0,56,0.00,,,0.00,meteohub,2013-06-15 19:35:00,
2013-06-15 15:38:00,79.3,63.7,29.94,SW,229,5.0,12.0,59,0.00,,,0.00,meteohub,2013-06-15 19:38:00,
2013-06-15 15:40:00,78.1,63.1,29.94,SSW,202,4.0,12.0,60,0.00,,,0.00,meteohub,2013-06-15 19:40:00,
2013-06-15 15:41:00,77.7,63.1,29.94,West,261,6.0,12.0,61,0.00,,,0.00,meteohub,2013-06-15 19:41:00,
2013-06-15 15:43:00,76.8,63.7,29.94,SSE,156,3.0,12.0,64,0.00,,,0.00,meteohub,2013-06-15 19:43:00,
2013-06-15 15:44:00,76.6,64.0,29.94,SSW,201,3.0,12.0,65,0.00,,,0.00,meteohub,2013-06-15 19:44:00,
2013-06-15 15:45:00,76.3,63.7,29.94,SSW,213,3.0,10.0,65,0.00,,,0.00,meteohub,2013-06-15 19:45:00,
2013-06-15 15:46:00,75.9,63.3,29.94,SSW,207,4.0,10.0,65,0.00,,,0.00,meteohub,2013-06-15 19:46:00,
2013-06-15 15:47:00,75.7,63.1,29.94,SSW,193,6.0,10.0,65,0.00,,,0.00,meteohub,2013-06-15 19:47:00,
2013-06-15 15:49:00,75.4,63.1,29.94,SSW,211,6.0,10.0,66,0.00,,,0.00,meteohub,2013-06-15 19:49:00,
2013-06-15 15:51:00,75.0,63.3,29.94,SSE,167,5.0,10.0,67,0.00,,,0.00,meteohub,2013-06-15 19:51:00,
2013-06-15 15:53:00,74.8,63.1,29.94,WSW,245,5.0,10.0,67,0.00,,,0.00,meteohub,2013-06-15 19:53:00,
2013-06-15 15:54:00,75.0,63.0,29.94,West,266,4.0,10.0,66,0.00,,,0.00,meteohub,2013-06-15 19:54:00,
2013-06-15 15:56:00,75.4,62.8,29.94,WSW,252,3.0,10.0,65,0.00,,,0.00,meteohub,2013-06-15 19:56:00,
2013-06-15 15:57:00,75.6,60.3,29.94,WSW,250,3.0,10.0,59,0.00,,,0.00,meteohub,2013-06-15 19:57:00,
2013-06-15 15:58:00,75.7,60.4,29.94,SSW,212,4.0,10.0,59,0.00,,,0.00,meteohub,2013-06-15 19:58:00,
2013-06-15 15:59:00,76.3,63.1,29.94,SSW,212,2.0,10.0,64,0.00,,,0.00,meteohub,2013-06-15 19:59:00,
2013-06-15 16:01:00,76.5,59.2,29.94,SW,236,5.0,10.0,55,0.00,,,0.00,meteohub,2013-06-15 20:01:00,
2013-06-15 16:03:00,77.0,59.5,29.94,WSW,254,8.0,10.0,55,0.00,,,0.00,meteohub,2013-06-15 20:03:00,
2013-06-15 16:04:00,78.3,55.8,29.94,WSW,244,3.0,10.0,46,0.00,,,0.00,meteohub,2013-06-15 20:04:00,
2013-06-15 16:05:00,79.0,56.5,29.94,WSW,257,2.0,10.0,46,0.00,,,0.00,meteohub,2013-06-15 20:05:00,
2013-06-15 16:07:00,80.1,54.9,29.94,West,279,10.0,10.0,42,0.00,,,0.00,meteohub,2013-06-15 20:07:00,
2013-06-15 16:08:00,80.2,55.0,29.94,WSW,237,4.0,10.0,42,0.00,,,0.00,meteohub,2013-06-15 20:08:00,
2013-06-15 16:10:00,81.1,54.5,29.93,West,261,4.0,10.0,40,0.00,,,0.00,meteohub,2013-06-15 20:10:00,
2013-06-15 16:13:00,81.9,54.5,29.93,WSW,251,1.0,10.0,39,0.00,,,0.00,meteohub,2013-06-15 20:13:00,
2013-06-15 16:16:00,82.6,55.8,29.93,SW,234,7.0,10.0,40,0.00,,,0.00,meteohub,2013-06-15 20:16:00,
2013-06-15 16:18:00,82.8,53.8,29.93,SW,225,7.0,10.0,37,0.00,,,0.00,meteohub,2013-06-15 20:18:00,
2013-06-15 16:19:00,82.8,53.8,29.93,SW,231,7.0,10.0,37,0.00,,,0.00,meteohub,2013-06-15 20:19:00,
2013-06-15 16:21:00,82.4,57.7,29.93,WNW,286,7.0,10.0,43,0.00,,,0.00,meteohub,2013-06-15 20:21:00,
2013-06-15 16:23:00,82.0,55.4,29.93,SW,224,4.0,10.0,40,0.00,,,0.00,meteohub,2013-06-15 20:23:00,
2013-06-15 16:24:00,82.0,55.4,29.93,SW,236,5.0,10.0,40,0.00,,,0.00,meteohub,2013-06-15 20:24:00,
2013-06-15 16:26:00,81.9,55.2,29.93,West,266,3.0,9.0,40,0.00,,,0.00,meteohub,2013-06-15 20:26:00,
2013-06-15 16:29:00,81.7,55.8,29.92,West,277,7.0,9.0,41,0.00,,,0.00,meteohub,2013-06-15 20:29:00,
2013-06-15 16:31:00,81.9,54.5,29.92,WSW,252,5.0,11.0,39,0.00,,,0.00,meteohub,2013-06-15 20:31:00,
2013-06-15 16:34:00,81.9,53.8,29.92,SW,232,5.0,11.0,38,0.00,,,0.00,meteohub,2013-06-15 20:34:00,
2013-06-15 16:35:00,81.9,53.8,29.92,WSW,241,8.0,11.0,38,0.00,,,0.00,meteohub,2013-06-15 20:35:00,
2013-06-15 16:36:00,81.9,53.8,29.92,West,267,6.0,13.0,38,0.00,,,0.00,meteohub,2013-06-15 20:36:00,
2013-06-15 16:37:00,82.0,54.0,29.92,WNW,292,5.0,13.0,38,0.00,,,0.00,meteohub,2013-06-15 20:37:00,
2013-06-15 16:40:00,82.0,53.2,29.92,WNW,302,7.0,13.0,37,0.00,,,0.00,meteohub,2013-06-15 20:40:00,
2013-06-15 16:41:00,82.0,54.0,29.92,WSW,257,7.0,13.0,38,0.00,,,0.00,meteohub,2013-06-15 20:41:00,
2013-06-15 16:42:00,82.2,54.1,29.92,WNW,284,10.0,13.0,38,0.00,,,0.00,meteohub,2013-06-15 20:42:00,
2013-06-15 16:43:00,82.2,54.1,29.92,WNW,303,9.0,13.0,38,0.00,,,0.00,meteohub,2013-06-15 20:43:00,
2013-06-15 16:45:00,82.2,54.1,29.92,WNW,297,8.0,13.0,38,0.00,,,0.00,meteohub,2013-06-15 20:45:00,
2013-06-15 16:47:00,82.0,54.0,29.92,WSW,240,4.0,13.0,38,0.00,,,0.00,meteohub,2013-06-15 20:47:00,
2013-06-15 16:48:00,82.0,54.7,29.92,SW,229,3.0,13.0,39,0.00,,,0.00,meteohub,2013-06-15 20:48:00,
2013-06-15 16:49:00,82.0,54.0,29.92,WSW,248,5.0,13.0,38,0.00,,,0.00,meteohub,2013-06-15 20:49:00,
2013-06-15 16:50:00,82.2,54.1,29.92,SW,219,5.0,14.0,38,0.00,,,0.00,meteohub,2013-06-15 20:50:00,
2013-06-15 16:51:00,82.2,54.9,29.93,WSW,241,3.0,14.0,39,0.00,,,0.00,meteohub,2013-06-15 20:51:00,
2013-06-15 16:52:00,82.4,55.6,29.93,SSW,196,6.0,14.0,40,0.00,,,0.00,meteohub,2013-06-15 20:52:00,
2013-06-15 16:53:00,82.0,62.6,29.93,SW,217,2.0,14.0,52,0.00,,,0.00,meteohub,2013-06-15 20:53:00,
2013-06-15 16:55:00,81.1,63.0,29.92,WSW,249,7.0,14.0,54,0.00,,,0.00,meteohub,2013-06-15 20:55:00,
2013-06-15 16:56:00,80.8,57.4,29.92,WSW,237,9.0,14.0,45,0.00,,,0.00,meteohub,2013-06-15 20:56:00,
2013-06-15 16:58:00,81.0,56.3,29.93,West,267,7.0,14.0,43,0.00,,,0.00,meteohub,2013-06-15 20:58:00,
2013-06-15 16:59:00,81.0,56.3,29.93,WNW,284,4.0,14.0,43,0.00,,,0.00,meteohub,2013-06-15 20:59:00,
2013-06-15 17:00:00,81.1,54.5,29.92,West,267,9.0,14.0,40,0.00,,,0.00,meteohub,2013-06-15 21:00:00,
2013-06-15 17:01:00,81.3,54.7,29.92,West,281,3.0,14.0,40,0.00,,,0.00,meteohub,2013-06-15 21:01:00,
2013-06-15 17:04:00,81.7,54.3,29.92,WSW,239,6.0,14.0,39,0.00,,,0.00,meteohub,2013-06-15 21:04:00,
2013-06-15 17:05:00,81.9,55.2,29.93,WSW,245,4.0,11.0,40,0.00,,,0.00,meteohub,2013-06-15 21:05:00,
2013-06-15 17:06:00,82.0,55.9,29.93,WNW,302,7.0,11.0,41,0.00,,,0.00,meteohub,2013-06-15 21:06:00,
2013-06-15 17:07:00,82.0,55.4,29.93,West,277,6.0,11.0,40,0.00,,,0.00,meteohub,2013-06-15 21:07:00,
2013-06-15 17:09:00,82.2,55.6,29.93,WNW,296,8.0,11.0,40,0.00,,,0.00,meteohub,2013-06-15 21:09:00,
2013-06-15 17:10:00,82.2,55.6,29.93,WSW,253,7.0,12.0,40,0.00,,,0.00,meteohub,2013-06-15 21:10:00,
2013-06-15 17:11:00,82.2,55.6,29.93,WNW,298,4.0,12.0,40,0.00,,,0.00,meteohub,2013-06-15 21:11:00,
2013-06-15 17:13:00,82.2,54.9,29.93,WNW,301,7.0,12.0,39,0.00,,,0.00,meteohub,2013-06-15 21:13:00,
2013-06-15 17:15:00,82.2,54.9,29.93,WSW,258,3.0,12.0,39,0.00,,,0.00,meteohub,2013-06-15 21:15:00,
2013-06-15 17:16:00,82.2,54.9,29.93,West,273,1.0,12.0,39,0.00,,,0.00,meteohub,2013-06-15 21:16:00,
2013-06-15 17:17:00,82.2,54.9,29.93,WSW,245,3.0,12.0,39,0.00,,,0.00,meteohub,2013-06-15 21:17:00,
2013-06-15 17:18:00,82.0,55.4,29.93,West,279,7.0,12.0,40,0.00,,,0.00,meteohub,2013-06-15 21:18:00,
2013-06-15 17:20:00,81.9,55.2,29.93,WNW,294,8.0,12.0,40,0.00,,,0.00,meteohub,2013-06-15 21:20:00,
2013-06-15 17:21:00,81.9,55.2,29.93,West,272,9.0,12.0,40,0.00,,,0.00,meteohub,2013-06-15 21:21:00,
2013-06-15 17:23:00,81.9,55.2,29.93,WNW,291,1.0,12.0,40,0.00,,,0.00,meteohub,2013-06-15 21:23:00,
2013-06-15 17:25:00,82.0,55.4,29.93,WSW,256,5.0,13.0,40,0.00,,,0.00,meteohub,2013-06-15 21:25:00,
2013-06-15 17:26:00,82.0,55.4,29.93,West,276,9.0,13.0,40,0.00,,,0.00,meteohub,2013-06-15 21:26:00,
2013-06-15 17:28:00,82.0,55.9,29.93,WNW,292,2.0,13.0,41,0.00,,,0.00,meteohub,2013-06-15 21:28:00,
2013-06-15 17:30:00,82.2,54.9,29.92,West,277,3.0,13.0,39,0.00,,,0.00,meteohub,2013-06-15 21:30:00,
2013-06-15 17:32:00,82.2,56.1,29.93,NW,305,7.0,13.0,41,0.00,,,0.00,meteohub,2013-06-15 21:32:00,
2013-06-15 17:33:00,82.2,56.1,29.93,WNW,284,6.0,13.0,41,0.00,,,0.00,meteohub,2013-06-15 21:33:00,
2013-06-15 17:35:00,82.2,56.1,29.93,NW,315,3.0,12.0,41,0.00,,,0.00,meteohub,2013-06-15 21:35:00,
2013-06-15 17:36:00,82.2,56.1,29.93,WSW,258,3.0,12.0,41,0.00,,,0.00,meteohub,2013-06-15 21:36:00,
2013-06-15 17:37:00,82.2,55.6,29.93,WNW,297,7.0,12.0,40,0.00,,,0.00,meteohub,2013-06-15 21:37:00,
2013-06-15 17:38:00,82.2,56.1,29.93,NW,306,3.0,12.0,41,0.00,,,0.00,meteohub,2013-06-15 21:38:00,
2013-06-15 17:40:00,82.4,56.3,29.93,West,267,8.0,12.0,41,0.00,,,0.00,meteohub,2013-06-15 21:40:00,
2013-06-15 17:41:00,82.4,56.3,29.93,West,263,6.0,12.0,41,0.00,,,0.00,meteohub,2013-06-15 21:41:00,
2013-06-15 17:42:00,82.4,56.3,29.93,WNW,284,2.0,12.0,41,0.00,,,0.00,meteohub,2013-06-15 21:42:00,
2013-06-15 17:43:00,82.4,56.3,29.93,WSW,252,4.0,12.0,41,0.00,,,0.00,meteohub,2013-06-15 21:43:00,
2013-06-15 17:44:00,82.4,57.0,29.93,WNW,288,5.0,12.0,42,0.00,,,0.00,meteohub,2013-06-15 21:44:00,
2013-06-15 17:46:00,82.2,56.8,29.93,WSW,250,3.0,12.0,42,0.00,,,0.00,meteohub,2013-06-15 21:46:00,
2013-06-15 17:47:00,82.2,56.1,29.93,West,277,2.0,12.0,41,0.00,,,0.00,meteohub,2013-06-15 21:47:00,
2013-06-15 17:49:00,82.2,56.1,29.93,WNW,292,7.0,12.0,41,0.00,,,0.00,meteohub,2013-06-15 21:49:00,
2013-06-15 17:51:00,81.9,57.2,29.93,WNW,299,5.0,10.0,43,0.00,,,0.00,meteohub,2013-06-15 21:51:00,
2013-06-15 17:52:00,81.7,57.6,29.93,NW,305,5.0,10.0,44,0.00,,,0.00,meteohub,2013-06-15 21:52:00,
2013-06-15 17:53:00,81.3,57.9,29.93,WSW,245,2.0,10.0,45,0.00,,,0.00,meteohub,2013-06-15 21:53:00,
2013-06-15 17:54:00,81.3,59.2,29.93,WSW,256,5.0,10.0,47,0.00,,,0.00,meteohub,2013-06-15 21:54:00,
2013-06-15 17:56:00,81.0,57.6,29.93,WNW,288,8.0,14.0,45,0.00,,,0.00,meteohub,2013-06-15 21:56:00,
2013-06-15 17:57:00,81.0,57.6,29.93,WNW,284,6.0,14.0,45,0.00,,,0.00,meteohub,2013-06-15 21:57:00,
2013-06-15 17:58:00,80.8,57.4,29.93,NW,317,5.0,14.0,45,0.00,,,0.00,meteohub,2013-06-15 21:58:00,
2013-06-15 17:59:00,80.6,57.9,29.93,West,275,3.0,14.0,46,0.00,,,0.00,meteohub,2013-06-15 21:59:00,
2013-06-15 18:01:00,80.4,57.7,29.93,West,261,4.0,14.0,46,0.00,,,0.00,meteohub,2013-06-15 22:01:00,
2013-06-15 18:02:00,80.4,57.7,29.93,WNW,286,3.0,14.0,46,0.00,,,0.00,meteohub,2013-06-15 22:02:00,
2013-06-15 18:04:00,80.4,57.2,29.93,West,277,3.0,14.0,45,0.00,,,0.00,meteohub,2013-06-15 22:04:00,
2013-06-15 18:06:00,80.6,57.4,29.93,West,266,3.0,14.0,45,0.00,,,0.00,meteohub,2013-06-15 22:06:00,
2013-06-15 18:07:00,80.8,57.4,29.93,WNW,290,4.0,14.0,45,0.00,,,0.00,meteohub,2013-06-15 22:07:00,
2013-06-15 18:09:00,81.0,57.6,29.93,WSW,237,4.0,14.0,45,0.00,,,0.00,meteohub,2013-06-15 22:09:00,
2013-06-15 18:10:00,81.0,58.3,29.93,WNW,290,4.0,14.0,46,0.00,,,0.00,meteohub,2013-06-15 22:10:00,
2013-06-15 18:12:00,81.0,58.8,29.93,West,276,4.0,10.0,47,0.00,,,0.00,meteohub,2013-06-15 22:12:00,
2013-06-15 18:13:00,81.0,58.8,29.93,West,262,8.0,10.0,47,0.00,,,0.00,meteohub,2013-06-15 22:13:00,
2013-06-15 18:14:00,81.0,58.8,29.93,West,263,12.0,12.0,47,0.00,,,0.00,meteohub,2013-06-15 22:14:00,
2013-06-15 18:15:00,80.8,58.6,29.93,WSW,238,6.0,10.0,47,0.00,,,0.00,meteohub,2013-06-15 22:15:00,
2013-06-15 18:18:00,80.4,58.3,29.93,WNW,288,5.0,10.0,47,0.00,,,0.00,meteohub,2013-06-15 22:18:00,
2013-06-15 18:19:00,80.4,57.7,29.93,WNW,293,7.0,10.0,46,0.00,,,0.00,meteohub,2013-06-15 22:19:00,
2013-06-15 18:20:00,80.2,58.1,29.93,WNW,287,8.0,12.0,47,0.00,,,0.00,meteohub,2013-06-15 22:20:00,
2013-06-15 18:22:00,80.1,57.4,29.93,West,270,7.0,12.0,46,0.00,,,0.00,meteohub,2013-06-15 22:22:00,
2013-06-15 18:23:00,80.1,58.1,29.93,West,279,9.0,12.0,47,0.00,,,0.00,meteohub,2013-06-15 22:23:00,
2013-06-15 18:24:00,80.1,58.1,29.93,WNW,290,4.0,12.0,47,0.00,,,0.00,meteohub,2013-06-15 22:24:00,
2013-06-15 18:25:00,79.9,57.9,29.93,West,272,6.0,12.0,47,0.00,,,0.00,meteohub,2013-06-15 22:25:00,
2013-06-15 18:27:00,79.9,57.9,29.93,West,279,3.0,12.0,47,0.00,,,0.00,meteohub,2013-06-15 22:27:00,
2013-06-15 18:29:00,79.9,57.9,29.93,WNW,295,4.0,12.0,47,0.00,,,0.00,meteohub,2013-06-15 22:29:00,
2013-06-15 18:30:00,79.9,57.9,29.93,WNW,292,3.0,12.0,47,0.00,,,0.00,meteohub,2013-06-15 22:30:00,
2013-06-15 18:33:00,80.1,58.1,29.93,WSW,246,2.0,12.0,47,0.00,,,0.00,meteohub,2013-06-15 22:33:00,
2013-06-15 18:34:00,80.1,58.6,29.93,WSW,251,3.0,12.0,48,0.00,,,0.00,meteohub,2013-06-15 22:34:00,
2013-06-15 18:35:00,79.9,59.0,29.93,WSW,239,6.0,12.0,49,0.00,,,0.00,meteohub,2013-06-15 22:35:00,
2013-06-15 18:36:00,79.9,59.0,29.93,WSW,251,5.0,12.0,49,0.00,,,0.00,meteohub,2013-06-15 22:36:00,
2013-06-15 18:38:00,79.5,58.1,29.93,WNW,284,7.0,12.0,48,0.00,,,0.00,meteohub,2013-06-15 22:38:00,
2013-06-15 18:39:00,79.3,57.9,29.93,SW,219,5.0,12.0,48,0.00,,,0.00,meteohub,2013-06-15 22:39:00,
2013-06-15 18:40:00,79.3,59.0,29.94,WSW,238,8.0,11.0,50,0.00,,,0.00,meteohub,2013-06-15 22:40:00,
2013-06-15 18:41:00,79.3,59.0,29.93,WNW,286,3.0,11.0,50,0.00,,,0.00,meteohub,2013-06-15 22:41:00,
2013-06-15 18:43:00,79.2,59.5,29.94,West,277,2.0,11.0,51,0.00,,,0.00,meteohub,2013-06-15 22:43:00,
2013-06-15 18:45:00,79.0,59.9,29.94,West,273,2.0,11.0,52,0.00,,,0.00,meteohub,2013-06-15 22:45:00,
2013-06-15 18:46:00,79.0,59.9,29.94,West,280,2.0,11.0,52,0.00,,,0.00,meteohub,2013-06-15 22:46:00,
2013-06-15 18:49:00,78.8,59.7,29.94,WSW,254,3.0,11.0,52,0.00,,,0.00,meteohub,2013-06-15 22:49:00,
2013-06-15 18:50:00,78.8,60.3,29.93,WSW,242,4.0,11.0,53,0.00,,,0.00,meteohub,2013-06-15 22:50:00,
2013-06-15 18:51:00,78.6,60.1,29.93,WNW,284,2.0,11.0,53,0.00,,,0.00,meteohub,2013-06-15 22:51:00,
2013-06-15 18:54:00,78.6,60.6,29.94,WSW,258,2.0,11.0,54,0.00,,,0.00,meteohub,2013-06-15 22:54:00,
2013-06-15 18:56:00,78.6,61.2,29.94,WSW,246,5.0,11.0,55,0.00,,,0.00,meteohub,2013-06-15 22:56:00,
2013-06-15 19:00:00,78.4,61.0,29.94,SW,234,5.0,11.0,55,0.00,,,0.00,meteohub,2013-06-15 23:00:00,
2013-06-15 19:01:00,78.4,61.0,29.94,West,273,2.0,8.0,55,0.00,,,0.00,meteohub,2013-06-15 23:01:00,
2013-06-15 19:02:00,78.4,61.0,29.94,WSW,248,4.0,8.0,55,0.00,,,0.00,meteohub,2013-06-15 23:02:00,
2013-06-15 19:05:00,78.3,60.8,29.94,West,261,2.0,8.0,55,0.00,,,0.00,meteohub,2013-06-15 23:05:00,
2013-06-15 19:06:00,78.3,61.3,29.94,WSW,252,2.0,8.0,56,0.00,,,0.00,meteohub,2013-06-15 23:06:00,
2013-06-15 19:07:00,78.3,61.3,29.94,WSW,243,1.0,8.0,56,0.00,,,0.00,meteohub,2013-06-15 23:07:00,
2013-06-15 19:12:00,78.1,62.1,29.94,WSW,246,2.0,8.0,58,0.00,,,0.00,meteohub,2013-06-15 23:12:00,
2013-06-15 19:13:00,77.9,61.9,29.94,WSW,246,3.0,8.0,58,0.00,,,0.00,meteohub,2013-06-15 23:13:00,
2013-06-15 19:17:00,77.7,61.3,29.94,WSW,242,3.0,8.0,57,0.00,,,0.00,meteohub,2013-06-15 23:17:00,
2013-06-15 19:19:00,77.5,61.2,29.94,WSW,257,4.0,8.0,57,0.00,,,0.00,meteohub,2013-06-15 23:19:00,
2013-06-15 19:22:00,77.5,62.6,29.94,WSW,238,5.0,9.0,60,0.00,,,0.00,meteohub,2013-06-15 23:22:00,
2013-06-15 19:23:00,77.4,62.4,29.94,West,281,6.0,9.0,60,0.00,,,0.00,meteohub,2013-06-15 23:23:00,
2013-06-15 19:24:00,77.4,61.9,29.94,WSW,239,4.0,9.0,59,0.00,,,0.00,meteohub,2013-06-15 23:24:00,
2013-06-15 19:25:00,77.2,61.7,29.94,WSW,243,3.0,9.0,59,0.00,,,0.00,meteohub,2013-06-15 23:25:00,
2013-06-15 19:27:00,77.2,61.3,29.94,West,266,3.0,9.0,58,0.00,,,0.00,meteohub,2013-06-15 23:27:00,
2013-06-15 19:28:00,77.2,61.7,29.94,WSW,257,3.0,9.0,59,0.00,,,0.00,meteohub,2013-06-15 23:28:00,
2013-06-15 19:29:00,77.0,61.2,29.94,WSW,242,3.0,9.0,58,0.00,,,0.00,meteohub,2013-06-15 23:29:00,
2013-06-15 19:30:00,77.0,61.5,29.94,WSW,252,7.0,9.0,59,0.00,,,0.00,meteohub,2013-06-15 23:30:00,
2013-06-15 19:32:00,76.8,61.3,29.94,WSW,242,4.0,9.0,59,0.00,,,0.00,meteohub,2013-06-15 23:32:00,
2013-06-15 19:33:00,76.8,61.3,29.94,WSW,248,3.0,9.0,59,0.00,,,0.00,meteohub,2013-06-15 23:33:00,
2013-06-15 19:34:00,76.8,61.3,29.94,West,263,4.0,9.0,59,0.00,,,0.00,meteohub,2013-06-15 23:34:00,
2013-06-15 19:35:00,76.8,61.3,29.94,West,264,7.0,9.0,59,0.00,,,0.00,meteohub,2013-06-15 23:35:00,
2013-06-15 19:38:00,76.8,61.9,29.94,WSW,245,4.0,9.0,60,0.00,,,0.00,meteohub,2013-06-15 23:38:00,
2013-06-15 19:39:00,76.8,62.4,29.94,WSW,247,3.0,9.0,61,0.00,,,0.00,meteohub,2013-06-15 23:39:00,
2013-06-15 19:40:00,76.6,62.2,29.94,WSW,246,4.0,10.0,61,0.00,,,0.00,meteohub,2013-06-15 23:40:00,
2013-06-15 19:41:00,76.6,62.2,29.94,SW,236,3.0,10.0,61,0.00,,,0.00,meteohub,2013-06-15 23:41:00,
2013-06-15 19:43:00,76.6,62.6,29.94,SW,236,3.0,10.0,62,0.00,,,0.00,meteohub,2013-06-15 23:43:00,
2013-06-15 19:44:00,76.6,62.6,29.94,WSW,242,6.0,10.0,62,0.00,,,0.00,meteohub,2013-06-15 23:44:00,
2013-06-15 19:45:00,76.5,62.4,29.94,WSW,240,3.0,10.0,62,0.00,,,0.00,meteohub,2013-06-15 23:45:00,
2013-06-15 19:46:00,76.5,62.4,29.94,WSW,244,7.0,10.0,62,0.00,,,0.00,meteohub,2013-06-15 23:46:00,
2013-06-15 19:49:00,76.3,62.2,29.94,WSW,243,5.0,10.0,62,0.00,,,0.00,meteohub,2013-06-15 23:49:00,
2013-06-15 19:50:00,76.3,61.9,29.94,WSW,250,4.0,9.0,61,0.00,,,0.00,meteohub,2013-06-15 23:50:00,
2013-06-15 19:51:00,76.3,61.3,29.94,WSW,240,4.0,9.0,60,0.00,,,0.00,meteohub,2013-06-15 23:51:00,
2013-06-15 19:54:00,76.3,61.0,29.94,West,261,8.0,9.0,59,0.00,,,0.00,meteohub,2013-06-15 23:54:00,
2013-06-15 19:55:00,76.3,61.0,29.94,WSW,244,4.0,9.0,59,0.00,,,0.00,meteohub,2013-06-15 23:55:00,
2013-06-15 19:56:00,76.3,61.0,29.94,SW,215,6.0,8.0,59,0.00,,,0.00,meteohub,2013-06-15 23:56:00,
2013-06-15 19:59:00,76.3,61.0,29.94,WSW,252,3.0,8.0,59,0.00,,,0.00,meteohub,2013-06-15 23:59:00,
2013-06-15 20:00:00,76.3,61.0,29.94,WSW,249,2.0,8.0,59,0.00,,,0.00,meteohub,2013-06-16 00:00:00,
2013-06-15 20:02:00,76.3,61.3,29.94,WSW,253,4.0,9.0,60,0.00,,,0.00,meteohub,2013-06-16 00:02:00,
2013-06-15 20:04:00,76.3,61.3,29.94,SW,224,4.0,9.0,60,0.00,,,0.00,meteohub,2013-06-16 00:04:00,
2013-06-15 20:05:00,76.3,61.9,29.94,WSW,243,4.0,9.0,61,0.00,,,0.00,meteohub,2013-06-16 00:05:00,
2013-06-15 20:06:00,76.3,61.9,29.94,WSW,257,4.0,9.0,61,0.00,,,0.00,meteohub,2013-06-16 00:06:00,
2013-06-15 20:08:00,76.1,61.7,29.94,WSW,256,4.0,9.0,61,0.00,,,0.00,meteohub,2013-06-16 00:08:00,
2013-06-15 20:09:00,76.1,61.7,29.94,West,261,3.0,9.0,61,0.00,,,0.00,meteohub,2013-06-16 00:09:00,
2013-06-15 20:10:00,75.9,61.5,29.94,WSW,246,7.0,9.0,61,0.00,,,0.00,meteohub,2013-06-16 00:10:00,
2013-06-15 20:12:00,75.9,61.9,29.94,SW,232,6.0,9.0,62,0.00,,,0.00,meteohub,2013-06-16 00:12:00,
2013-06-15 20:13:00,75.9,61.9,29.94,WSW,240,3.0,9.0,62,0.00,,,0.00,meteohub,2013-06-16 00:13:00,
2013-06-15 20:15:00,75.7,61.9,29.94,WSW,245,3.0,9.0,62,0.00,,,0.00,meteohub,2013-06-16 00:15:00,
2013-06-15 20:16:00,75.7,61.9,29.94,WSW,248,5.0,9.0,62,0.00,,,0.00,meteohub,2013-06-16 00:16:00,
2013-06-15 20:18:00,75.7,61.9,29.95,West,263,7.0,9.0,62,0.00,,,0.00,meteohub,2013-06-16 00:18:00,
2013-06-15 20:19:00,75.7,61.9,29.95,SW,236,4.0,9.0,62,0.00,,,0.00,meteohub,2013-06-16 00:19:00,
2013-06-15 20:21:00,75.7,62.2,29.95,West,259,3.0,9.0,63,0.00,,,0.00,meteohub,2013-06-16 00:21:00,
2013-06-15 20:24:00,75.6,62.6,29.95,SW,222,4.0,9.0,64,0.00,,,0.00,meteohub,2013-06-16 00:24:00,
2013-06-15 20:26:00,75.6,63.0,29.95,SSW,203,2.0,9.0,65,0.00,,,0.00,meteohub,2013-06-16 00:26:00,
2013-06-15 20:29:00,74.8,63.5,29.94,South,182,2.0,9.0,68,0.00,,,0.00,meteohub,2013-06-16 00:29:00,
2013-06-15 20:31:00,74.1,63.3,29.95,SSW,202,4.0,9.0,69,0.00,,,0.00,meteohub,2013-06-16 00:31:00,
2013-06-15 20:32:00,73.9,63.5,29.95,SSW,209,3.0,9.0,70,0.00,,,0.00,meteohub,2013-06-16 00:32:00,
2013-06-15 20:34:00,73.2,63.3,29.95,SW,217,5.0,9.0,71,0.00,,,0.00,meteohub,2013-06-16 00:34:00,
2013-06-15 20:35:00,73.0,63.5,29.95,SSW,211,7.0,9.0,72,0.00,,,0.00,meteohub,2013-06-16 00:35:00,
2013-06-15 20:36:00,72.9,63.3,29.95,West,260,3.0,9.0,72,0.00,,,0.00,meteohub,2013-06-16 00:36:00,
2013-06-15 20:37:00,72.9,63.3,29.95,WSW,243,9.0,9.0,72,0.00,,,0.00,meteohub,2013-06-16 00:37:00,
2013-06-15 20:39:00,72.9,63.3,29.95,WSW,252,7.0,9.0,72,0.00,,,0.00,meteohub,2013-06-16 00:39:00,
2013-06-15 20:41:00,72.7,63.1,29.95,SW,219,6.0,14.0,72,0.00,,,0.00,meteohub,2013-06-16 00:41:00,
2013-06-15 20:42:00,72.7,63.1,29.95,SSW,211,3.0,14.0,72,0.00,,,0.00,meteohub,2013-06-16 00:42:00,
2013-06-15 20:45:00,72.5,63.0,29.95,SW,223,4.0,14.0,72,0.00,,,0.00,meteohub,2013-06-16 00:45:00,
2013-06-15 20:46:00,72.3,62.8,29.95,SW,216,4.0,14.0,72,0.00,,,0.00,meteohub,2013-06-16 00:46:00,
2013-06-15 20:47:00,72.3,62.8,29.95,SSW,198,4.0,14.0,72,0.00,,,0.00,meteohub,2013-06-16 00:47:00,
2013-06-15 20:51:00,72.1,62.2,29.95,SSW,211,5.0,14.0,71,0.00,,,0.00,meteohub,2013-06-16 00:51:00,
2013-06-15 20:52:00,72.1,62.2,29.95,WSW,248,9.0,14.0,71,0.00,,,0.00,meteohub,2013-06-16 00:52:00,
2013-06-15 20:53:00,72.1,62.2,29.95,SW,228,5.0,14.0,71,0.00,,,0.00,meteohub,2013-06-16 00:53:00,
2013-06-15 20:56:00,72.1,62.2,29.95,WSW,244,4.0,13.0,71,0.00,,,0.00,meteohub,2013-06-16 00:56:00,
2013-06-15 20:57:00,72.1,62.2,29.95,SW,232,5.0,13.0,71,0.00,,,0.00,meteohub,2013-06-16 00:57:00,
2013-06-15 20:58:00,72.0,62.1,29.96,SW,224,6.0,13.0,71,0.00,,,0.00,meteohub,2013-06-16 00:58:00,
2013-06-15 21:01:00,72.0,62.4,29.96,SSW,196,6.0,13.0,72,0.00,,,0.00,meteohub,2013-06-16 01:01:00,
2013-06-15 21:02:00,72.0,62.4,29.96,SW,232,5.0,13.0,72,0.00,,,0.00,meteohub,2013-06-16 01:02:00,
2013-06-15 21:03:00,72.0,62.1,29.96,SSW,205,13.0,13.0,71,0.00,,,0.00,meteohub,2013-06-16 01:03:00,
2013-06-15 21:04:00,72.0,62.1,29.96,SSW,197,9.0,13.0,71,0.00,,,0.00,meteohub,2013-06-16 01:04:00,
2013-06-15 21:07:00,72.0,62.1,29.96,SW,226,5.0,11.0,71,0.00,,,0.00,meteohub,2013-06-16 01:07:00,
2013-06-15 21:08:00,72.0,62.4,29.96,SW,221,6.0,11.0,72,0.00,,,0.00,meteohub,2013-06-16 01:08:00,
2013-06-15 21:09:00,71.8,62.2,29.96,SW,226,4.0,11.0,72,0.00,,,0.00,meteohub,2013-06-16 01:09:00,
2013-06-15 21:12:00,71.8,62.2,29.96,South,189,8.0,13.0,72,0.00,,,0.00,meteohub,2013-06-16 01:12:00,
2013-06-15 21:13:00,71.8,62.2,29.96,WSW,238,9.0,13.0,72,0.00,,,0.00,meteohub,2013-06-16 01:13:00,
2013-06-15 21:15:00,72.0,62.8,29.96,SSW,203,7.0,13.0,73,0.00,,,0.00,meteohub,2013-06-16 01:15:00,
2013-06-15 21:17:00,72.0,62.8,29.96,WSW,249,8.0,13.0,73,0.00,,,0.00,meteohub,2013-06-16 01:17:00,
2013-06-15 21:18:00,72.0,63.1,29.96,WSW,242,13.0,13.0,74,0.00,,,0.00,meteohub,2013-06-16 01:18:00,
2013-06-15 21:19:00,72.0,63.1,29.96,WSW,240,11.0,13.0,74,0.00,,,0.00,meteohub,2013-06-16 01:19:00,
2013-06-15 21:21:00,71.8,62.6,29.96,WSW,258,12.0,12.0,73,0.00,,,0.00,meteohub,2013-06-16 01:21:00,
2013-06-15 21:23:00,71.8,62.6,29.97,WSW,248,12.0,12.0,73,0.00,,,0.00,meteohub,2013-06-16 01:23:00,
2013-06-15 21:24:00,71.8,62.6,29.97,SSW,202,9.0,11.0,73,0.00,,,0.00,meteohub,2013-06-16 01:24:00,
2013-06-15 21:25:00,71.8,62.6,29.97,WSW,243,8.0,11.0,73,0.00,,,0.00,meteohub,2013-06-16 01:25:00,
2013-06-15 21:28:00,71.6,62.4,29.97,SW,225,6.0,14.0,73,0.00,,,0.00,meteohub,2013-06-16 01:28:00,
2013-06-15 21:29:00,71.6,62.4,29.97,SW,234,6.0,14.0,73,0.00,,,0.00,meteohub,2013-06-16 01:29:00,
2013-06-15 21:30:00,71.8,62.6,29.97,SSW,198,6.0,14.0,73,0.00,,,0.00,meteohub,2013-06-16 01:30:00,
2013-06-15 21:33:00,71.6,63.0,29.97,WSW,244,5.0,14.0,74,0.00,,,0.00,meteohub,2013-06-16 01:33:00,
2013-06-15 21:34:00,71.6,63.0,29.97,SW,217,9.0,14.0,74,0.00,,,0.00,meteohub,2013-06-16 01:34:00,
2013-06-15 21:35:00,71.6,63.0,29.97,SW,216,11.0,14.0,74,0.00,,,0.00,meteohub,2013-06-16 01:35:00,
2013-06-15 21:39:00,71.4,63.1,29.97,SW,233,7.0,14.0,75,0.00,,,0.00,meteohub,2013-06-16 01:39:00,
2013-06-15 21:40:00,71.4,63.1,29.97,SSW,207,7.0,14.0,75,0.00,,,0.00,meteohub,2013-06-16 01:40:00,
2013-06-15 21:41:00,71.4,63.1,29.97,SW,223,8.0,14.0,75,0.00,,,0.00,meteohub,2013-06-16 01:41:00,
2013-06-15 21:44:00,71.4,63.1,29.97,SW,223,6.0,14.0,75,0.00,,,0.00,meteohub,2013-06-16 01:44:00,
2013-06-15 21:45:00,71.4,63.1,29.98,SW,217,9.0,14.0,75,0.00,,,0.00,meteohub,2013-06-16 01:45:00,
2013-06-15 21:47:00,71.4,63.5,29.98,SW,224,4.0,14.0,76,0.00,,,0.00,meteohub,2013-06-16 01:47:00,
2013-06-15 21:50:00,71.4,63.5,29.98,West,272,8.0,14.0,76,0.00,,,0.00,meteohub,2013-06-16 01:50:00,
2013-06-15 21:51:00,71.4,63.5,29.98,WSW,254,9.0,13.0,76,0.00,,,0.00,meteohub,2013-06-16 01:51:00,
2013-06-15 21:52:00,71.4,63.5,29.98,SW,234,6.0,13.0,76,0.00,,,0.00,meteohub,2013-06-16 01:52:00,
2013-06-15 21:55:00,71.2,63.3,29.98,WSW,243,9.0,13.0,76,0.00,,,0.00,meteohub,2013-06-16 01:55:00,
2013-06-15 21:56:00,71.2,63.7,29.98,SW,229,4.0,15.0,77,0.00,,,0.00,meteohub,2013-06-16 01:56:00,
2013-06-15 21:57:00,71.2,63.7,29.98,WSW,246,8.0,15.0,77,0.00,,,0.00,meteohub,2013-06-16 01:57:00,
2013-06-15 21:58:00,71.4,63.9,29.98,SSW,213,4.0,15.0,77,0.00,,,0.00,meteohub,2013-06-16 01:58:00,
2013-06-15 22:00:00,71.4,63.9,29.98,WSW,238,5.0,15.0,77,0.00,,,0.00,meteohub,2013-06-16 02:00:00,
2013-06-15 22:01:00,71.2,63.7,29.98,WSW,244,7.0,15.0,77,0.00,,,0.00,meteohub,2013-06-16 02:01:00,
2013-06-15 22:02:00,71.2,63.7,29.98,SW,229,7.0,15.0,77,0.00,,,0.00,meteohub,2013-06-16 02:02:00,
2013-06-15 22:03:00,71.2,63.7,29.98,SW,227,7.0,15.0,77,0.00,,,0.00,meteohub,2013-06-16 02:03:00,
2013-06-15 22:05:00,71.2,64.0,29.98,SW,234,6.0,13.0,78,0.00,,,0.00,meteohub,2013-06-16 02:05:00,
2013-06-15 22:07:00,71.2,64.0,29.98,SW,215,2.0,13.0,78,0.00,,,0.00,meteohub,2013-06-16 02:07:00,
2013-06-15 22:09:00,71.2,64.0,29.98,WSW,242,6.0,13.0,78,0.00,,,0.00,meteohub,2013-06-16 02:09:00,
2013-06-15 22:10:00,71.1,63.9,29.98,WSW,237,7.0,13.0,78,0.00,,,0.00,meteohub,2013-06-16 02:10:00,
2013-06-15 22:12:00,71.1,63.9,29.98,SW,227,12.0,13.0,78,0.00,,,0.00,meteohub,2013-06-16 02:12:00,
2013-06-15 22:14:00,71.1,63.9,29.98,SW,223,8.0,13.0,78,0.00,,,0.00,meteohub,2013-06-16 02:14:00,
2013-06-15 22:16:00,70.9,63.7,29.98,SSW,206,6.0,12.0,78,0.00,,,0.00,meteohub,2013-06-16 02:16:00,
2013-06-15 22:17:00,70.9,64.0,29.99,WSW,244,9.0,12.0,79,0.00,,,0.00,meteohub,2013-06-16 02:17:00,
2013-06-15 22:19:00,70.9,64.0,29.99,SW,235,5.0,12.0,79,0.00,,,0.00,meteohub,2013-06-16 02:19:00,
2013-06-15 22:21:00,70.9,64.0,29.98,SW,214,5.0,12.0,79,0.00,,,0.00,meteohub,2013-06-16 02:21:00,
2013-06-15 22:22:00,70.9,64.0,29.98,West,259,11.0,12.0,79,0.00,,,0.00,meteohub,2013-06-16 02:22:00,
2013-06-15 22:23:00,70.9,64.0,29.98,WSW,252,5.0,12.0,79,0.00,,,0.00,meteohub,2013-06-16 02:23:00,
2013-06-15 22:24:00,70.5,63.7,29.98,WSW,243,6.0,12.0,79,0.00,,,0.00,meteohub,2013-06-16 02:24:00,
2013-06-15 22:25:00,70.5,63.7,29.98,SSW,208,8.0,12.0,79,0.00,,,0.00,meteohub,2013-06-16 02:25:00,
2013-06-15 22:26:00,70.5,64.0,29.98,SSW,200,7.0,14.0,80,0.00,,,0.00,meteohub,2013-06-16 02:26:00,
2013-06-15 22:28:00,70.3,63.9,29.98,SW,228,7.0,14.0,80,0.00,,,0.00,meteohub,2013-06-16 02:28:00,
2013-06-15 22:30:00,70.3,63.9,29.98,WSW,246,8.0,14.0,80,0.00,,,0.00,meteohub,2013-06-16 02:30:00,
2013-06-15 22:32:00,70.3,64.2,29.98,WSW,239,3.0,14.0,81,0.00,,,0.00,meteohub,2013-06-16 02:32:00,
2013-06-15 22:33:00,70.3,64.2,29.98,WSW,252,7.0,14.0,81,0.00,,,0.00,meteohub,2013-06-16 02:33:00,
2013-06-15 22:35:00,70.2,64.0,29.98,SSW,200,5.0,14.0,81,0.00,,,0.00,meteohub,2013-06-16 02:35:00,
2013-06-15 22:36:00,70.2,64.0,29.98,WSW,247,8.0,14.0,81,0.00,,,0.00,meteohub,2013-06-16 02:36:00,
2013-06-15 22:38:00,70.2,64.0,29.98,SW,229,7.0,14.0,81,0.00,,,0.00,meteohub,2013-06-16 02:38:00,
2013-06-15 22:39:00,70.2,64.0,29.98,WSW,242,2.0,14.0,81,0.00,,,0.00,meteohub,2013-06-16 02:39:00,
2013-06-15 22:40:00,70.2,64.0,29.98,SW,232,10.0,14.0,81,0.00,,,0.00,meteohub,2013-06-16 02:40:00,
2013-06-15 22:41:00,70.2,64.0,29.98,SSW,213,6.0,13.0,81,0.00,,,0.00,meteohub,2013-06-16 02:41:00,
2013-06-15 22:43:00,70.2,64.4,29.98,SW,216,2.0,13.0,82,0.00,,,0.00,meteohub,2013-06-16 02:43:00,
2013-06-15 22:44:00,70.2,64.4,29.98,WSW,239,5.0,13.0,82,0.00,,,0.00,meteohub,2013-06-16 02:44:00,
2013-06-15 22:45:00,70.2,64.4,29.98,SW,227,5.0,12.0,82,0.00,,,0.00,meteohub,2013-06-16 02:45:00,
2013-06-15 22:46:00,70.2,64.4,29.98,SW,234,9.0,12.0,82,0.00,,,0.00,meteohub,2013-06-16 02:46:00,
2013-06-15 22:47:00,70.2,64.4,29.98,WSW,248,10.0,12.0,82,0.00,,,0.00,meteohub,2013-06-16 02:47:00,
2013-06-15 22:49:00,70.2,64.8,29.98,SW,227,6.0,12.0,83,0.00,,,0.00,meteohub,2013-06-16 02:49:00,
2013-06-15 22:50:00,70.2,64.8,29.98,SW,219,6.0,12.0,83,0.00,,,0.00,meteohub,2013-06-16 02:50:00,
2013-06-15 22:51:00,70.2,64.8,29.98,SSW,198,6.0,12.0,83,0.00,,,0.00,meteohub,2013-06-16 02:51:00,
2013-06-15 22:52:00,70.2,64.8,29.98,SW,228,5.0,12.0,83,0.00,,,0.00,meteohub,2013-06-16 02:52:00,
2013-06-15 22:54:00,70.2,64.8,29.98,SW,229,6.0,12.0,83,0.00,,,0.00,meteohub,2013-06-16 02:54:00,
2013-06-15 22:55:00,70.0,64.6,29.98,WSW,243,5.0,12.0,83,0.00,,,0.00,meteohub,2013-06-16 02:55:00,
2013-06-15 22:56:00,70.0,64.6,29.99,SW,227,4.0,12.0,83,0.00,,,0.00,meteohub,2013-06-16 02:56:00,
2013-06-15 22:57:00,70.2,64.8,29.99,SW,232,7.0,12.0,83,0.00,,,0.00,meteohub,2013-06-16 02:57:00,
2013-06-15 22:59:00,70.0,64.6,29.99,WSW,250,5.0,12.0,83,0.00,,,0.00,meteohub,2013-06-16 02:59:00,
2013-06-15 23:01:00,70.0,64.6,29.99,WSW,249,5.0,10.0,83,0.00,,,0.00,meteohub,2013-06-16 03:01:00,
2013-06-15 23:02:00,70.0,64.6,29.99,SW,236,6.0,10.0,83,0.00,,,0.00,meteohub,2013-06-16 03:02:00,
2013-06-15 23:04:00,70.0,64.6,29.99,WSW,238,10.0,10.0,83,0.00,,,0.00,meteohub,2013-06-16 03:04:00,
2013-06-15 23:06:00,70.0,64.6,29.99,WSW,237,9.0,10.0,83,0.00,,,0.00,meteohub,2013-06-16 03:06:00,
2013-06-15 23:07:00,70.0,64.6,29.99,SW,227,6.0,10.0,83,0.00,,,0.00,meteohub,2013-06-16 03:07:00,
2013-06-15 23:09:00,69.8,64.4,29.99,SW,234,5.0,10.0,83,0.00,,,0.00,meteohub,2013-06-16 03:09:00,
2013-06-15 23:11:00,69.8,64.4,29.99,WSW,249,8.0,12.0,83,0.00,,,0.00,meteohub,2013-06-16 03:11:00,
2013-06-15 23:12:00,69.8,64.4,29.99,WSW,254,4.0,12.0,83,0.00,,,0.00,meteohub,2013-06-16 03:12:00,
2013-06-15 23:13:00,69.8,64.4,29.99,SW,215,7.0,12.0,83,0.00,,,0.00,meteohub,2013-06-16 03:13:00,
2013-06-15 23:15:00,69.8,64.4,29.99,SW,225,4.0,12.0,83,0.00,,,0.00,meteohub,2013-06-16 03:15:00,
2013-06-15 23:17:00,69.6,64.2,29.99,SW,233,4.0,12.0,83,0.00,,,0.00,meteohub,2013-06-16 03:17:00,
2013-06-15 23:18:00,69.6,64.2,29.99,WSW,242,6.0,12.0,83,0.00,,,0.00,meteohub,2013-06-16 03:18:00,
2013-06-15 23:20:00,69.6,64.2,29.99,WSW,257,10.0,12.0,83,0.00,,,0.00,meteohub,2013-06-16 03:20:00,
2013-06-15 23:22:00,69.6,64.6,29.99,WSW,248,8.0,12.0,84,0.00,,,0.00,meteohub,2013-06-16 03:22:00,
2013-06-15 23:23:00,69.6,64.6,29.99,WSW,246,8.0,12.0,84,0.00,,,0.00,meteohub,2013-06-16 03:23:00,
2013-06-15 23:25:00,69.6,64.6,29.99,SW,232,7.0,12.0,84,0.00,,,0.00,meteohub,2013-06-16 03:25:00,
2013-06-15 23:28:00,69.4,64.4,29.99,WSW,238,6.0,12.0,84,0.00,,,0.00,meteohub,2013-06-16 03:28:00,
2013-06-15 23:29:00,69.6,64.6,29.99,WSW,252,5.0,12.0,84,0.00,,,0.00,meteohub,2013-06-16 03:29:00,
2013-06-15 23:30:00,69.6,64.6,29.99,WSW,242,4.0,12.0,84,0.00,,,0.00,meteohub,2013-06-16 03:30:00,
2013-06-15 23:33:00,69.6,64.6,29.99,SW,235,6.0,12.0,84,0.00,,,0.00,meteohub,2013-06-16 03:33:00,
2013-06-15 23:35:00,69.6,64.9,29.99,WSW,242,3.0,12.0,85,0.00,,,0.00,meteohub,2013-06-16 03:35:00,
2013-06-15 23:36:00,69.6,64.9,29.99,West,260,6.0,12.0,85,0.00,,,0.00,meteohub,2013-06-16 03:36:00,
2013-06-15 23:38:00,69.6,64.9,29.99,SW,219,3.0,12.0,85,0.00,,,0.00,meteohub,2013-06-16 03:38:00,
2013-06-15 23:39:00,69.6,64.9,29.99,WSW,254,4.0,12.0,85,0.00,,,0.00,meteohub,2013-06-16 03:39:00,
2013-06-15 23:40:00,69.6,64.9,29.99,WSW,246,2.0,12.0,85,0.00,,,0.00,meteohub,2013-06-16 03:40:00,
2013-06-15 23:41:00,69.6,64.9,29.99,West,267,2.0,12.0,85,0.00,,,0.00,meteohub,2013-06-16 03:41:00,
2013-06-15 23:43:00,69.6,64.9,29.99,WSW,254,3.0,12.0,85,0.00,,,0.00,meteohub,2013-06-16 03:43:00,
2013-06-15 23:44:00,69.6,64.9,29.99,SW,234,6.0,12.0,85,0.00,,,0.00,meteohub,2013-06-16 03:44:00,
2013-06-15 23:45:00,69.4,64.8,29.99,WSW,258,7.0,12.0,85,0.00,,,0.00,meteohub,2013-06-16 03:45:00,
2013-06-15 23:46:00,69.4,64.8,29.99,WSW,242,4.0,12.0,85,0.00,,,0.00,meteohub,2013-06-16 03:46:00,
2013-06-15 23:49:00,69.4,65.1,29.99,WSW,242,4.0,12.0,86,0.00,,,0.00,meteohub,2013-06-16 03:49:00,
2013-06-15 23:50:00,69.4,65.1,29.99,West,266,2.0,8.0,86,0.00,,,0.00,meteohub,2013-06-16 03:50:00,
2013-06-15 23:51:00,69.4,65.1,29.99,SW,234,6.0,8.0,86,0.00,,,0.00,meteohub,2013-06-16 03:51:00,
2013-06-15 23:52:00,69.4,65.1,29.99,WSW,250,7.0,8.0,86,0.00,,,0.00,meteohub,2013-06-16 03:52:00,
2013-06-15 23:54:00,69.4,65.1,29.99,WSW,251,8.0,8.0,86,0.00,,,0.00,meteohub,2013-06-16 03:54:00,
2013-06-15 23:55:00,69.4,65.1,29.99,WSW,238,3.0,8.0,86,0.00,,,0.00,meteohub,2013-06-16 03:55:00,
2013-06-15 23:56:00,69.4,65.1,29.99,SSW,212,8.0,9.0,86,0.00,,,0.00,meteohub,2013-06-16 03:56:00,
2013-06-15 23:57:00,69.4,65.1,29.99,West,268,2.0,9.0,86,0.00,,,0.00,meteohub,2013-06-16 03:57:00,
2013-06-15 23:59:00,69.4,65.5,29.99,WSW,254,3.0,9.0,87,0.00,,,0.00,meteohub,2013-06-16 03:59:00,